<?xml version="1.0" encoding="UTF-8" standalone="no" ?>
<gpx xmlns="http://www.topografix.com/GPX/1/1" xmlns:xsi="http://www.w3.org/2001/XMLSchema-instance" xsi:schemaLocation="http://www.topografix.com/GPX/1/1 http://www.topografix.com/GPX/1/1/gpx.xsd" version="1.1" creator="VisuGPX - https://www.visugpx.com">
  <metadata>
    <name>Sortie des petits ponts</name>
  </metadata>
  <trk>
    <name><![CDATA[Sortie des petits ponts]]></name>
    <trkseg>
      <trkpt lat="45.98868" lon="4.56515">
        <ele>709.5147781322</ele>
        <time>2021-07-20T17:25:18.000Z</time>
      </trkpt>
      <trkpt lat="45.98861" lon="4.56491">
        <ele>709.25571682783</ele>
        <time>2021-07-20T17:25:18.006Z</time>
      </trkpt>
      <trkpt lat="45.98852" lon="4.56444">
        <ele>708.32808374689</ele>
        <time>2021-07-20T17:25:18.023Z</time>
      </trkpt>
      <trkpt lat="45.98837" lon="4.56402">
        <ele>706.45952041356</ele>
        <time>2021-07-20T17:25:18.051Z</time>
      </trkpt>
      <trkpt lat="45.98842" lon="4.56401">
        <ele>703.92372459776</ele>
        <time>2021-07-20T17:25:18.081Z</time>
      </trkpt>
      <trkpt lat="45.98843" lon="4.56401">
        <ele>701.12013616487</ele>
        <time>2021-07-20T17:25:18.111Z</time>
      </trkpt>
      <trkpt lat="45.98843" lon="4.564">
        <ele>698.14982363911</ele>
        <time>2021-07-20T17:25:18.142Z</time>
      </trkpt>
      <trkpt lat="45.9886" lon="4.56396">
        <ele>694.53291778166</ele>
        <time>2021-07-20T17:25:18.178Z</time>
      </trkpt>
      <trkpt lat="45.98882" lon="4.56386">
        <ele>690.42420136255</ele>
        <time>2021-07-20T17:25:18.222Z</time>
      </trkpt>
      <trkpt lat="45.98919" lon="4.5635">
        <ele>686.17568135892</ele>
        <time>2021-07-20T17:25:18.281Z</time>
      </trkpt>
      <trkpt lat="45.98944" lon="4.56314">
        <ele>681.81070824212</ele>
        <time>2021-07-20T17:25:18.352Z</time>
      </trkpt>
      <trkpt lat="45.98974" lon="4.56263">
        <ele>677.57148551395</ele>
        <time>2021-07-20T17:25:18.438Z</time>
      </trkpt>
      <trkpt lat="45.99016" lon="4.56179">
        <ele>673.95757693795</ele>
        <time>2021-07-20T17:25:18.548Z</time>
      </trkpt>
      <trkpt lat="45.99038" lon="4.56133">
        <ele>670.56556393261</ele>
        <time>2021-07-20T17:25:18.671Z</time>
      </trkpt>
      <trkpt lat="45.99058" lon="4.56087">
        <ele>667.92864742947</ele>
        <time>2021-07-20T17:25:18.807Z</time>
      </trkpt>
      <trkpt lat="45.99071" lon="4.56069">
        <ele>666.30416128044</ele>
        <time>2021-07-20T17:25:18.949Z</time>
      </trkpt>
      <trkpt lat="45.99077" lon="4.56063">
        <ele>665.49089588883</ele>
        <time>2021-07-20T17:25:19.093Z</time>
      </trkpt>
      <trkpt lat="45.99079" lon="4.56061">
        <ele>665.31182659834</ele>
        <time>2021-07-20T17:25:19.238Z</time>
      </trkpt>
      <trkpt lat="45.9909" lon="4.56049">
        <ele>665.6795124816</ele>
        <time>2021-07-20T17:25:19.388Z</time>
      </trkpt>
      <trkpt lat="45.99098" lon="4.56035">
        <ele>666.47724299494</ele>
        <time>2021-07-20T17:25:19.542Z</time>
      </trkpt>
      <trkpt lat="45.99103" lon="4.56015">
        <ele>667.45041721505</ele>
        <time>2021-07-20T17:25:19.701Z</time>
      </trkpt>
      <trkpt lat="45.99103" lon="4.55986">
        <ele>668.49640688474</ele>
        <time>2021-07-20T17:25:19.867Z</time>
      </trkpt>
      <trkpt lat="45.99099" lon="4.55957">
        <ele>669.62633246873</ele>
        <time>2021-07-20T17:25:20.040Z</time>
      </trkpt>
      <trkpt lat="45.991" lon="4.55945">
        <ele>670.80046388581</ele>
        <time>2021-07-20T17:25:20.215Z</time>
      </trkpt>
      <trkpt lat="45.99104" lon="4.55929">
        <ele>672.02778779683</ele>
        <time>2021-07-20T17:25:20.394Z</time>
      </trkpt>
      <trkpt lat="45.99109" lon="4.55925">
        <ele>673.16693561149</ele>
        <time>2021-07-20T17:25:20.575Z</time>
      </trkpt>
      <trkpt lat="45.99111" lon="4.55925">
        <ele>674.2133553049</ele>
        <time>2021-07-20T17:25:20.757Z</time>
      </trkpt>
      <trkpt lat="45.99114" lon="4.55928">
        <ele>675.17640792493</ele>
        <time>2021-07-20T17:25:20.940Z</time>
      </trkpt>
      <trkpt lat="45.99117" lon="4.55933">
        <ele>676.05333306646</ele>
        <time>2021-07-20T17:25:21.125Z</time>
      </trkpt>
      <trkpt lat="45.9912" lon="4.55928">
        <ele>676.84279821291</ele>
        <time>2021-07-20T17:25:21.311Z</time>
      </trkpt>
      <trkpt lat="45.99133" lon="4.55919">
        <ele>677.60479453622</ele>
        <time>2021-07-20T17:25:21.502Z</time>
      </trkpt>
      <trkpt lat="45.99146" lon="4.55919">
        <ele>678.30098766041</ele>
        <time>2021-07-20T17:25:21.697Z</time>
      </trkpt>
      <trkpt lat="45.99157" lon="4.55922">
        <ele>678.90896999992</ele>
        <time>2021-07-20T17:25:21.896Z</time>
      </trkpt>
      <trkpt lat="45.9919" lon="4.55934">
        <ele>679.54653978793</ele>
        <time>2021-07-20T17:25:22.106Z</time>
      </trkpt>
      <trkpt lat="45.99196" lon="4.5593">
        <ele>679.73335878259</ele>
        <time>2021-07-20T17:25:22.319Z</time>
      </trkpt>
      <trkpt lat="45.99199" lon="4.5593">
        <ele>679.72110645669</ele>
        <time>2021-07-20T17:25:22.533Z</time>
      </trkpt>
      <trkpt lat="45.99233" lon="4.55938">
        <ele>679.28910633917</ele>
        <time>2021-07-20T17:25:22.758Z</time>
      </trkpt>
      <trkpt lat="45.99247" lon="4.55938">
        <ele>678.80496311948</ele>
        <time>2021-07-20T17:25:22.988Z</time>
      </trkpt>
      <trkpt lat="45.99266" lon="4.55936">
        <ele>678.19169852026</ele>
        <time>2021-07-20T17:25:23.224Z</time>
      </trkpt>
      <trkpt lat="45.9928" lon="4.55932">
        <ele>677.38445594398</ele>
        <time>2021-07-20T17:25:23.465Z</time>
      </trkpt>
      <trkpt lat="45.99304" lon="4.55929">
        <ele>676.56314869187</ele>
        <time>2021-07-20T17:25:23.714Z</time>
      </trkpt>
      <trkpt lat="45.99311" lon="4.55928">
        <ele>675.72847443317</ele>
        <time>2021-07-20T17:25:23.965Z</time>
      </trkpt>
      <trkpt lat="45.9933" lon="4.55922">
        <ele>674.96316133977</ele>
        <time>2021-07-20T17:25:24.223Z</time>
      </trkpt>
      <trkpt lat="45.99333" lon="4.55911">
        <ele>674.08150300567</ele>
        <time>2021-07-20T17:25:24.483Z</time>
      </trkpt>
      <trkpt lat="45.99333" lon="4.55902">
        <ele>673.12988451308</ele>
        <time>2021-07-20T17:25:24.746Z</time>
      </trkpt>
      <trkpt lat="45.99328" lon="4.55879">
        <ele>671.97683681788</ele>
        <time>2021-07-20T17:25:25.014Z</time>
      </trkpt>
      <trkpt lat="45.9932" lon="4.55856">
        <ele>670.77086646742</ele>
        <time>2021-07-20T17:25:25.288Z</time>
      </trkpt>
      <trkpt lat="45.99315" lon="4.55809">
        <ele>669.63660676295</ele>
        <time>2021-07-20T17:25:25.573Z</time>
      </trkpt>
      <trkpt lat="45.99319" lon="4.55787">
        <ele>668.78335641134</ele>
        <time>2021-07-20T17:25:25.863Z</time>
      </trkpt>
      <trkpt lat="45.9933" lon="4.55771">
        <ele>668.1322793661</ele>
        <time>2021-07-20T17:25:26.159Z</time>
      </trkpt>
      <trkpt lat="45.99346" lon="4.55761">
        <ele>667.63257015803</ele>
        <time>2021-07-20T17:25:26.460Z</time>
      </trkpt>
      <trkpt lat="45.99391" lon="4.55745">
        <ele>666.75320808758</ele>
        <time>2021-07-20T17:25:26.777Z</time>
      </trkpt>
      <trkpt lat="45.99412" lon="4.55743">
        <ele>665.896942081</ele>
        <time>2021-07-20T17:25:27.101Z</time>
      </trkpt>
      <trkpt lat="45.99453" lon="4.55747">
        <ele>665.12997629362</ele>
        <time>2021-07-20T17:25:27.439Z</time>
      </trkpt>
      <trkpt lat="45.9946" lon="4.55743">
        <ele>663.99455167069</ele>
        <time>2021-07-20T17:25:27.779Z</time>
      </trkpt>
      <trkpt lat="45.99462" lon="4.5574">
        <ele>662.62675663078</ele>
        <time>2021-07-20T17:25:28.120Z</time>
      </trkpt>
      <trkpt lat="45.99463" lon="4.55731">
        <ele>660.97941280461</ele>
        <time>2021-07-20T17:25:28.463Z</time>
      </trkpt>
      <trkpt lat="45.99462" lon="4.55705">
        <ele>658.89687975018</ele>
        <time>2021-07-20T17:25:28.812Z</time>
      </trkpt>
      <trkpt lat="45.99459" lon="4.55668">
        <ele>656.59486889626</ele>
        <time>2021-07-20T17:25:29.170Z</time>
      </trkpt>
      <trkpt lat="45.99456" lon="4.55638">
        <ele>654.4986283805</ele>
        <time>2021-07-20T17:25:29.535Z</time>
      </trkpt>
      <trkpt lat="45.99454" lon="4.55625">
        <ele>652.5674687681</ele>
        <time>2021-07-20T17:25:29.903Z</time>
      </trkpt>
      <trkpt lat="45.9945" lon="4.55603">
        <ele>650.7357659317</ele>
        <time>2021-07-20T17:25:30.276Z</time>
      </trkpt>
      <trkpt lat="45.99451" lon="4.55587">
        <ele>649.24142294579</ele>
        <time>2021-07-20T17:25:30.653Z</time>
      </trkpt>
      <trkpt lat="45.99464" lon="4.55528">
        <ele>648.14460197459</ele>
        <time>2021-07-20T17:25:31.045Z</time>
      </trkpt>
      <trkpt lat="45.99468" lon="4.55513">
        <ele>647.23787775073</ele>
        <time>2021-07-20T17:25:31.440Z</time>
      </trkpt>
      <trkpt lat="45.99494" lon="4.5539">
        <ele>646.49844613724</ele>
        <time>2021-07-20T17:25:31.865Z</time>
      </trkpt>
      <trkpt lat="45.99503" lon="4.55367">
        <ele>645.95381815409</ele>
        <time>2021-07-20T17:25:32.296Z</time>
      </trkpt>
      <trkpt lat="45.99516" lon="4.55346">
        <ele>645.76169896056</ele>
        <time>2021-07-20T17:25:32.734Z</time>
      </trkpt>
      <trkpt lat="45.9954" lon="4.55325">
        <ele>645.98261019331</ele>
        <time>2021-07-20T17:25:33.181Z</time>
      </trkpt>
      <trkpt lat="45.99563" lon="4.55314">
        <ele>646.38683037435</ele>
        <time>2021-07-20T17:25:33.636Z</time>
      </trkpt>
      <trkpt lat="45.99574" lon="4.55312">
        <ele>646.97460362332</ele>
        <time>2021-07-20T17:25:34.095Z</time>
      </trkpt>
      <trkpt lat="45.99597" lon="4.55312">
        <ele>647.73037051775</ele>
        <time>2021-07-20T17:25:34.562Z</time>
      </trkpt>
      <trkpt lat="45.99616" lon="4.55317">
        <ele>648.67233953874</ele>
        <time>2021-07-20T17:25:35.035Z</time>
      </trkpt>
      <trkpt lat="45.99629" lon="4.55324">
        <ele>649.59602797679</ele>
        <time>2021-07-20T17:25:35.513Z</time>
      </trkpt>
      <trkpt lat="45.99634" lon="4.55324">
        <ele>650.31787649326</ele>
        <time>2021-07-20T17:25:35.992Z</time>
      </trkpt>
      <trkpt lat="45.99646" lon="4.5531">
        <ele>650.82359939613</ele>
        <time>2021-07-20T17:25:36.476Z</time>
      </trkpt>
      <trkpt lat="45.99666" lon="4.55276">
        <ele>651.21128509919</ele>
        <time>2021-07-20T17:25:36.971Z</time>
      </trkpt>
      <trkpt lat="45.99686" lon="4.55254">
        <ele>651.79769424268</ele>
        <time>2021-07-20T17:25:37.474Z</time>
      </trkpt>
      <trkpt lat="45.9971" lon="4.55219">
        <ele>652.51663035403</ele>
        <time>2021-07-20T17:25:37.989Z</time>
      </trkpt>
      <trkpt lat="45.9973" lon="4.55196">
        <ele>652.89934032642</ele>
        <time>2021-07-20T17:25:38.512Z</time>
      </trkpt>
      <trkpt lat="45.99731" lon="4.55195">
        <ele>653.3305068595</ele>
        <time>2021-07-20T17:25:39.036Z</time>
      </trkpt>
      <trkpt lat="45.99748" lon="4.5516">
        <ele>653.72557415874</ele>
        <time>2021-07-20T17:25:39.570Z</time>
      </trkpt>
      <trkpt lat="45.99757" lon="4.5514">
        <ele>654.28262337136</ele>
        <time>2021-07-20T17:25:40.109Z</time>
      </trkpt>
      <trkpt lat="45.99765" lon="4.55119">
        <ele>654.93707248619</ele>
        <time>2021-07-20T17:25:40.654Z</time>
      </trkpt>
      <trkpt lat="45.99769" lon="4.55102">
        <ele>655.73868264937</ele>
        <time>2021-07-20T17:25:41.203Z</time>
      </trkpt>
      <trkpt lat="45.9977" lon="4.55089">
        <ele>656.76422380567</ele>
        <time>2021-07-20T17:25:41.755Z</time>
      </trkpt>
      <trkpt lat="45.99773" lon="4.55068">
        <ele>658.14246366512</ele>
        <time>2021-07-20T17:25:42.312Z</time>
      </trkpt>
      <trkpt lat="45.99778" lon="4.54995">
        <ele>660.30281565655</ele>
        <time>2021-07-20T17:25:42.886Z</time>
      </trkpt>
      <trkpt lat="45.9978" lon="4.54964">
        <ele>662.40078940608</ele>
        <time>2021-07-20T17:25:43.467Z</time>
      </trkpt>
      <trkpt lat="45.99783" lon="4.54926">
        <ele>664.65742403704</ele>
        <time>2021-07-20T17:25:44.057Z</time>
      </trkpt>
      <trkpt lat="45.99786" lon="4.54913">
        <ele>666.89704738613</ele>
        <time>2021-07-20T17:25:44.650Z</time>
      </trkpt>
      <trkpt lat="45.99788" lon="4.54908">
        <ele>669.15185661081</ele>
        <time>2021-07-20T17:25:45.244Z</time>
      </trkpt>
      <trkpt lat="45.99796" lon="4.54892">
        <ele>671.55276122878</ele>
        <time>2021-07-20T17:25:45.843Z</time>
      </trkpt>
      <trkpt lat="45.99801" lon="4.54877">
        <ele>673.92927395345</ele>
        <time>2021-07-20T17:25:46.446Z</time>
      </trkpt>
      <trkpt lat="45.99802" lon="4.54862">
        <ele>676.30502220222</ele>
        <time>2021-07-20T17:25:47.052Z</time>
      </trkpt>
      <trkpt lat="45.99809" lon="4.54803">
        <ele>678.68451498206</ele>
        <time>2021-07-20T17:25:47.672Z</time>
      </trkpt>
      <trkpt lat="45.99818" lon="4.54775">
        <ele>681.17906808531</ele>
        <time>2021-07-20T17:25:48.300Z</time>
      </trkpt>
      <trkpt lat="45.99823" lon="4.54748">
        <ele>683.71136961982</ele>
        <time>2021-07-20T17:25:48.934Z</time>
      </trkpt>
      <trkpt lat="45.99832" lon="4.54694">
        <ele>686.48616310878</ele>
        <time>2021-07-20T17:25:49.581Z</time>
      </trkpt>
      <trkpt lat="45.99839" lon="4.54623">
        <ele>689.62995798812</ele>
        <time>2021-07-20T17:25:50.245Z</time>
      </trkpt>
      <trkpt lat="45.99842" lon="4.54601">
        <ele>692.39931033807</ele>
        <time>2021-07-20T17:25:50.914Z</time>
      </trkpt>
      <trkpt lat="45.99847" lon="4.54592">
        <ele>695.0563998423</ele>
        <time>2021-07-20T17:25:51.585Z</time>
      </trkpt>
      <trkpt lat="45.99851" lon="4.54587">
        <ele>697.6571945576</ele>
        <time>2021-07-20T17:25:52.258Z</time>
      </trkpt>
      <trkpt lat="45.99848" lon="4.54581">
        <ele>700.18024443683</ele>
        <time>2021-07-20T17:25:52.933Z</time>
      </trkpt>
      <trkpt lat="45.99841" lon="4.54569">
        <ele>702.71844847344</ele>
        <time>2021-07-20T17:25:53.612Z</time>
      </trkpt>
      <trkpt lat="45.99838" lon="4.54566">
        <ele>705.07793923162</ele>
        <time>2021-07-20T17:25:54.292Z</time>
      </trkpt>
      <trkpt lat="45.99833" lon="4.54559">
        <ele>707.33361725257</ele>
        <time>2021-07-20T17:25:54.974Z</time>
      </trkpt>
      <trkpt lat="45.99824" lon="4.54554">
        <ele>709.43633282606</ele>
        <time>2021-07-20T17:25:55.659Z</time>
      </trkpt>
      <trkpt lat="45.99791" lon="4.54543">
        <ele>711.63813246764</ele>
        <time>2021-07-20T17:25:56.356Z</time>
      </trkpt>
      <trkpt lat="45.99771" lon="4.54539">
        <ele>713.21707999261</ele>
        <time>2021-07-20T17:25:57.059Z</time>
      </trkpt>
      <trkpt lat="45.99741" lon="4.54526">
        <ele>714.43614228013</ele>
        <time>2021-07-20T17:25:57.773Z</time>
      </trkpt>
      <trkpt lat="45.99703" lon="4.54517">
        <ele>715.07819125656</ele>
        <time>2021-07-20T17:25:58.500Z</time>
      </trkpt>
      <trkpt lat="45.99668" lon="4.54511">
        <ele>715.24257814887</ele>
        <time>2021-07-20T17:25:59.238Z</time>
      </trkpt>
      <trkpt lat="45.99633" lon="4.54509">
        <ele>714.99047212129</ele>
        <time>2021-07-20T17:25:59.988Z</time>
      </trkpt>
      <trkpt lat="45.99596" lon="4.5451">
        <ele>714.34856909175</ele>
        <time>2021-07-20T17:26:00.750Z</time>
      </trkpt>
      <trkpt lat="45.99579" lon="4.54509">
        <ele>713.31882782246</ele>
        <time>2021-07-20T17:26:01.518Z</time>
      </trkpt>
      <trkpt lat="45.99575" lon="4.54505">
        <ele>711.84618982801</ele>
        <time>2021-07-20T17:26:02.288Z</time>
      </trkpt>
      <trkpt lat="45.99547" lon="4.54481">
        <ele>709.96593932893</ele>
        <time>2021-07-20T17:26:03.069Z</time>
      </trkpt>
      <trkpt lat="45.99525" lon="4.54459">
        <ele>707.55729046136</ele>
        <time>2021-07-20T17:26:03.859Z</time>
      </trkpt>
      <trkpt lat="45.99469" lon="4.54401">
        <ele>704.75018294899</ele>
        <time>2021-07-20T17:26:04.672Z</time>
      </trkpt>
      <trkpt lat="45.9945" lon="4.54386">
        <ele>701.98862001795</ele>
        <time>2021-07-20T17:26:05.492Z</time>
      </trkpt>
      <trkpt lat="45.99431" lon="4.5438">
        <ele>699.17518942477</ele>
        <time>2021-07-20T17:26:06.318Z</time>
      </trkpt>
      <trkpt lat="45.99398" lon="4.54375">
        <ele>696.2243274905</ele>
        <time>2021-07-20T17:26:07.155Z</time>
      </trkpt>
      <trkpt lat="45.99334" lon="4.54368">
        <ele>693.00657891763</ele>
        <time>2021-07-20T17:26:08.014Z</time>
      </trkpt>
      <trkpt lat="45.99316" lon="4.54367">
        <ele>690.16070274567</ele>
        <time>2021-07-20T17:26:08.879Z</time>
      </trkpt>
      <trkpt lat="45.99298" lon="4.54366">
        <ele>687.56286177624</ele>
        <time>2021-07-20T17:26:09.750Z</time>
      </trkpt>
      <trkpt lat="45.99289" lon="4.54362">
        <ele>685.20552415487</ele>
        <time>2021-07-20T17:26:10.624Z</time>
      </trkpt>
      <trkpt lat="45.99285" lon="4.54357">
        <ele>683.05520469267</ele>
        <time>2021-07-20T17:26:11.500Z</time>
      </trkpt>
      <trkpt lat="45.99275" lon="4.54336">
        <ele>681.05785232392</ele>
        <time>2021-07-20T17:26:12.382Z</time>
      </trkpt>
      <trkpt lat="45.99274" lon="4.54334">
        <ele>679.32273787645</ele>
        <time>2021-07-20T17:26:13.264Z</time>
      </trkpt>
      <trkpt lat="45.99261" lon="4.54311">
        <ele>677.6578006382</ele>
        <time>2021-07-20T17:26:14.153Z</time>
      </trkpt>
      <trkpt lat="45.99254" lon="4.54298">
        <ele>676.19927626648</ele>
        <time>2021-07-20T17:26:15.046Z</time>
      </trkpt>
      <trkpt lat="45.99238" lon="4.54281">
        <ele>674.85121742047</ele>
        <time>2021-07-20T17:26:15.946Z</time>
      </trkpt>
      <trkpt lat="45.99228" lon="4.54272">
        <ele>673.6207481232</ele>
        <time>2021-07-20T17:26:16.849Z</time>
      </trkpt>
      <trkpt lat="45.99216" lon="4.54265">
        <ele>672.47154890622</ele>
        <time>2021-07-20T17:26:17.757Z</time>
      </trkpt>
      <trkpt lat="45.992" lon="4.54261">
        <ele>671.36124697405</ele>
        <time>2021-07-20T17:26:18.670Z</time>
      </trkpt>
      <trkpt lat="45.99183" lon="4.54258">
        <ele>670.25130801896</ele>
        <time>2021-07-20T17:26:19.589Z</time>
      </trkpt>
      <trkpt lat="45.99156" lon="4.5426">
        <ele>669.06082415128</ele>
        <time>2021-07-20T17:26:20.517Z</time>
      </trkpt>
      <trkpt lat="45.99155" lon="4.54259">
        <ele>667.98205894219</ele>
        <time>2021-07-20T17:26:21.445Z</time>
      </trkpt>
      <trkpt lat="45.9913" lon="4.54272">
        <ele>666.78285698527</ele>
        <time>2021-07-20T17:26:22.382Z</time>
      </trkpt>
      <trkpt lat="45.99082" lon="4.54305">
        <ele>665.47115134905</ele>
        <time>2021-07-20T17:26:23.337Z</time>
      </trkpt>
      <trkpt lat="45.9905" lon="4.54325">
        <ele>664.33844668877</ele>
        <time>2021-07-20T17:26:24.304Z</time>
      </trkpt>
      <trkpt lat="45.99034" lon="4.54336">
        <ele>663.36719596404</ele>
        <time>2021-07-20T17:26:25.276Z</time>
      </trkpt>
      <trkpt lat="45.99027" lon="4.5434">
        <ele>662.3906958522</ele>
        <time>2021-07-20T17:26:26.251Z</time>
      </trkpt>
      <trkpt lat="45.99019" lon="4.54349">
        <ele>661.47016440953</ele>
        <time>2021-07-20T17:26:27.229Z</time>
      </trkpt>
      <trkpt lat="45.99018" lon="4.54351">
        <ele>660.54973867889</ele>
        <time>2021-07-20T17:26:28.208Z</time>
      </trkpt>
      <trkpt lat="45.99015" lon="4.54325">
        <ele>659.49284692838</ele>
        <time>2021-07-20T17:26:29.193Z</time>
      </trkpt>
      <trkpt lat="45.99016" lon="4.54318">
        <ele>658.50153486254</ele>
        <time>2021-07-20T17:26:30.180Z</time>
      </trkpt>
      <trkpt lat="45.99018" lon="4.54308">
        <ele>657.47287255205</ele>
        <time>2021-07-20T17:26:31.169Z</time>
      </trkpt>
      <trkpt lat="45.99028" lon="4.54284">
        <ele>656.29101122182</ele>
        <time>2021-07-20T17:26:32.165Z</time>
      </trkpt>
      <trkpt lat="45.99033" lon="4.54274">
        <ele>655.23681753756</ele>
        <time>2021-07-20T17:26:33.164Z</time>
      </trkpt>
      <trkpt lat="45.99034" lon="4.5427">
        <ele>654.20027511256</ele>
        <time>2021-07-20T17:26:34.164Z</time>
      </trkpt>
      <trkpt lat="45.99031" lon="4.54266">
        <ele>653.1127013665</ele>
        <time>2021-07-20T17:26:35.165Z</time>
      </trkpt>
      <trkpt lat="45.99017" lon="4.54263">
        <ele>651.92168811934</ele>
        <time>2021-07-20T17:26:36.171Z</time>
      </trkpt>
      <trkpt lat="45.99" lon="4.54256">
        <ele>650.67076980562</ele>
        <time>2021-07-20T17:26:37.182Z</time>
      </trkpt>
      <trkpt lat="45.98974" lon="4.54258">
        <ele>649.53423010838</ele>
        <time>2021-07-20T17:26:38.202Z</time>
      </trkpt>
      <trkpt lat="45.98956" lon="4.54259">
        <ele>648.21297325356</ele>
        <time>2021-07-20T17:26:39.228Z</time>
      </trkpt>
      <trkpt lat="45.98951" lon="4.54256">
        <ele>646.61425860009</ele>
        <time>2021-07-20T17:26:40.256Z</time>
      </trkpt>
      <trkpt lat="45.98944" lon="4.54251">
        <ele>644.77409969655</ele>
        <time>2021-07-20T17:26:41.287Z</time>
      </trkpt>
      <trkpt lat="45.98932" lon="4.54237">
        <ele>642.56025962032</ele>
        <time>2021-07-20T17:26:42.323Z</time>
      </trkpt>
      <trkpt lat="45.98923" lon="4.54219">
        <ele>639.99604812639</ele>
        <time>2021-07-20T17:26:43.364Z</time>
      </trkpt>
      <trkpt lat="45.98913" lon="4.54198">
        <ele>637.11726896659</ele>
        <time>2021-07-20T17:26:44.411Z</time>
      </trkpt>
      <trkpt lat="45.98891" lon="4.54157">
        <ele>633.82684436998</ele>
        <time>2021-07-20T17:26:45.470Z</time>
      </trkpt>
      <trkpt lat="45.98878" lon="4.54141">
        <ele>630.81724154044</ele>
        <time>2021-07-20T17:26:46.535Z</time>
      </trkpt>
      <trkpt lat="45.9886" lon="4.54135">
        <ele>627.86990535032</ele>
        <time>2021-07-20T17:26:47.606Z</time>
      </trkpt>
      <trkpt lat="45.98842" lon="4.5413">
        <ele>624.85833618508</ele>
        <time>2021-07-20T17:26:48.683Z</time>
      </trkpt>
      <trkpt lat="45.98807" lon="4.54127">
        <ele>621.66783369223</ele>
        <time>2021-07-20T17:26:49.772Z</time>
      </trkpt>
      <trkpt lat="45.98789" lon="4.54122">
        <ele>618.68536482397</ele>
        <time>2021-07-20T17:26:50.867Z</time>
      </trkpt>
      <trkpt lat="45.98772" lon="4.54115">
        <ele>615.7447053268</ele>
        <time>2021-07-20T17:26:51.968Z</time>
      </trkpt>
      <trkpt lat="45.98756" lon="4.54103">
        <ele>612.76029669118</ele>
        <time>2021-07-20T17:26:53.075Z</time>
      </trkpt>
      <trkpt lat="45.98739" lon="4.54085">
        <ele>609.72133455637</ele>
        <time>2021-07-20T17:26:54.189Z</time>
      </trkpt>
      <trkpt lat="45.98712" lon="4.54059">
        <ele>606.41925393321</ele>
        <time>2021-07-20T17:26:55.313Z</time>
      </trkpt>
      <trkpt lat="45.98688" lon="4.5404">
        <ele>603.50347315332</ele>
        <time>2021-07-20T17:26:56.447Z</time>
      </trkpt>
      <trkpt lat="45.98684" lon="4.54037">
        <ele>600.69643316581</ele>
        <time>2021-07-20T17:26:57.582Z</time>
      </trkpt>
      <trkpt lat="45.98636" lon="4.54007">
        <ele>597.63173979593</ele>
        <time>2021-07-20T17:26:58.735Z</time>
      </trkpt>
      <trkpt lat="45.98618" lon="4.53993">
        <ele>594.76694978419</ele>
        <time>2021-07-20T17:26:59.894Z</time>
      </trkpt>
      <trkpt lat="45.98601" lon="4.53974">
        <ele>591.9881674524</ele>
        <time>2021-07-20T17:27:01.061Z</time>
      </trkpt>
      <trkpt lat="45.98585" lon="4.5395">
        <ele>589.11450535885</ele>
        <time>2021-07-20T17:27:02.235Z</time>
      </trkpt>
      <trkpt lat="45.98579" lon="4.5394">
        <ele>586.48876725729</ele>
        <time>2021-07-20T17:27:03.412Z</time>
      </trkpt>
      <trkpt lat="45.98564" lon="4.53926">
        <ele>583.97867637075</ele>
        <time>2021-07-20T17:27:04.595Z</time>
      </trkpt>
      <trkpt lat="45.98549" lon="4.53913">
        <ele>581.5380537925</ele>
        <time>2021-07-20T17:27:05.784Z</time>
      </trkpt>
      <trkpt lat="45.98535" lon="4.53899">
        <ele>579.13591448609</ele>
        <time>2021-07-20T17:27:06.979Z</time>
      </trkpt>
      <trkpt lat="45.98522" lon="4.53882">
        <ele>576.69062993332</ele>
        <time>2021-07-20T17:27:08.180Z</time>
      </trkpt>
      <trkpt lat="45.98517" lon="4.53872">
        <ele>574.17959905709</ele>
        <time>2021-07-20T17:27:09.384Z</time>
      </trkpt>
      <trkpt lat="45.9851" lon="4.5386">
        <ele>571.59615837117</ele>
        <time>2021-07-20T17:27:10.591Z</time>
      </trkpt>
      <trkpt lat="45.98472" lon="4.53788">
        <ele>568.67742551423</ele>
        <time>2021-07-20T17:27:11.819Z</time>
      </trkpt>
      <trkpt lat="45.98452" lon="4.53762">
        <ele>565.68718388585</ele>
        <time>2021-07-20T17:27:13.056Z</time>
      </trkpt>
      <trkpt lat="45.9843" lon="4.53744">
        <ele>562.65235473279</ele>
        <time>2021-07-20T17:27:14.302Z</time>
      </trkpt>
      <trkpt lat="45.98415" lon="4.5374">
        <ele>559.82812706722</ele>
        <time>2021-07-20T17:27:15.553Z</time>
      </trkpt>
      <trkpt lat="45.98399" lon="4.53741">
        <ele>557.12572764516</ele>
        <time>2021-07-20T17:27:16.809Z</time>
      </trkpt>
      <trkpt lat="45.98384" lon="4.53747">
        <ele>554.54805979225</ele>
        <time>2021-07-20T17:27:18.070Z</time>
      </trkpt>
      <trkpt lat="45.98375" lon="4.53755">
        <ele>552.2311633364</ele>
        <time>2021-07-20T17:27:19.335Z</time>
      </trkpt>
      <trkpt lat="45.98354" lon="4.53807">
        <ele>550.19731174155</ele>
        <time>2021-07-20T17:27:20.614Z</time>
      </trkpt>
      <trkpt lat="45.98349" lon="4.53817">
        <ele>548.3343104872</ele>
        <time>2021-07-20T17:27:21.896Z</time>
      </trkpt>
      <trkpt lat="45.98336" lon="4.53831">
        <ele>546.47361579305</ele>
        <time>2021-07-20T17:27:23.183Z</time>
      </trkpt>
      <trkpt lat="45.98323" lon="4.53848">
        <ele>544.79445127349</ele>
        <time>2021-07-20T17:27:24.476Z</time>
      </trkpt>
      <trkpt lat="45.98324" lon="4.53837">
        <ele>542.9351245085</ele>
        <time>2021-07-20T17:27:25.772Z</time>
      </trkpt>
      <trkpt lat="45.98329" lon="4.53826">
        <ele>541.23138179842</ele>
        <time>2021-07-20T17:27:27.071Z</time>
      </trkpt>
      <trkpt lat="45.98338" lon="4.53809">
        <ele>539.50417158874</ele>
        <time>2021-07-20T17:27:28.375Z</time>
      </trkpt>
      <trkpt lat="45.98339" lon="4.53805">
        <ele>537.77957589534</ele>
        <time>2021-07-20T17:27:29.680Z</time>
      </trkpt>
      <trkpt lat="45.98341" lon="4.53785">
        <ele>535.9343674338</ele>
        <time>2021-07-20T17:27:30.989Z</time>
      </trkpt>
      <trkpt lat="45.98342" lon="4.53764">
        <ele>534.05285259142</ele>
        <time>2021-07-20T17:27:32.303Z</time>
      </trkpt>
      <trkpt lat="45.98342" lon="4.53759">
        <ele>532.27371508253</ele>
        <time>2021-07-20T17:27:33.618Z</time>
      </trkpt>
      <trkpt lat="45.98343" lon="4.53722">
        <ele>530.33663504297</ele>
        <time>2021-07-20T17:27:34.942Z</time>
      </trkpt>
      <trkpt lat="45.98347" lon="4.53688">
        <ele>528.45156139202</ele>
        <time>2021-07-20T17:27:36.274Z</time>
      </trkpt>
      <trkpt lat="45.98354" lon="4.53657">
        <ele>526.72836392268</ele>
        <time>2021-07-20T17:27:37.613Z</time>
      </trkpt>
      <trkpt lat="45.98363" lon="4.53632">
        <ele>525.35269557101</ele>
        <time>2021-07-20T17:27:38.959Z</time>
      </trkpt>
      <trkpt lat="45.98368" lon="4.53622">
        <ele>524.28011284648</ele>
        <time>2021-07-20T17:27:40.308Z</time>
      </trkpt>
      <trkpt lat="45.98374" lon="4.53615">
        <ele>523.46131002423</ele>
        <time>2021-07-20T17:27:41.659Z</time>
      </trkpt>
      <trkpt lat="45.98389" lon="4.53601">
        <ele>522.98048867994</ele>
        <time>2021-07-20T17:27:43.016Z</time>
      </trkpt>
      <trkpt lat="45.98405" lon="4.53591">
        <ele>522.62853695856</ele>
        <time>2021-07-20T17:27:44.379Z</time>
      </trkpt>
      <trkpt lat="45.98426" lon="4.53585">
        <ele>522.44209289722</ele>
        <time>2021-07-20T17:27:45.749Z</time>
      </trkpt>
      <trkpt lat="45.9846" lon="4.53557">
        <ele>521.902491497</ele>
        <time>2021-07-20T17:27:47.132Z</time>
      </trkpt>
      <trkpt lat="45.98507" lon="4.53519">
        <ele>521.44602934342</ele>
        <time>2021-07-20T17:27:48.533Z</time>
      </trkpt>
      <trkpt lat="45.98534" lon="4.53502">
        <ele>521.30893063781</ele>
        <time>2021-07-20T17:27:49.944Z</time>
      </trkpt>
      <trkpt lat="45.98558" lon="4.53491">
        <ele>521.0532328782</ele>
        <time>2021-07-20T17:27:51.364Z</time>
      </trkpt>
      <trkpt lat="45.98574" lon="4.53488">
        <ele>520.73384253188</ele>
        <time>2021-07-20T17:27:52.789Z</time>
      </trkpt>
      <trkpt lat="45.98599" lon="4.53491">
        <ele>520.29885561568</ele>
        <time>2021-07-20T17:27:54.222Z</time>
      </trkpt>
      <trkpt lat="45.98623" lon="4.53505">
        <ele>519.92626453771</ele>
        <time>2021-07-20T17:27:55.664Z</time>
      </trkpt>
      <trkpt lat="45.98639" lon="4.53515">
        <ele>519.25621260219</ele>
        <time>2021-07-20T17:27:57.112Z</time>
      </trkpt>
      <trkpt lat="45.98654" lon="4.53545">
        <ele>518.49551679679</ele>
        <time>2021-07-20T17:27:58.568Z</time>
      </trkpt>
      <trkpt lat="45.98657" lon="4.53574">
        <ele>517.49477164626</ele>
        <time>2021-07-20T17:28:00.031Z</time>
      </trkpt>
      <trkpt lat="45.98654" lon="4.53604">
        <ele>516.35936817028</ele>
        <time>2021-07-20T17:28:01.501Z</time>
      </trkpt>
      <trkpt lat="45.98644" lon="4.53651">
        <ele>514.93115258943</ele>
        <time>2021-07-20T17:28:02.983Z</time>
      </trkpt>
      <trkpt lat="45.98642" lon="4.53683">
        <ele>513.25077252166</ele>
        <time>2021-07-20T17:28:04.472Z</time>
      </trkpt>
      <trkpt lat="45.98645" lon="4.53694">
        <ele>511.40032830188</ele>
        <time>2021-07-20T17:28:05.964Z</time>
      </trkpt>
      <trkpt lat="45.98652" lon="4.53704">
        <ele>509.41683660786</ele>
        <time>2021-07-20T17:28:07.459Z</time>
      </trkpt>
      <trkpt lat="45.98666" lon="4.53713">
        <ele>507.34185098341</ele>
        <time>2021-07-20T17:28:08.959Z</time>
      </trkpt>
      <trkpt lat="45.98688" lon="4.53718">
        <ele>505.13254633486</ele>
        <time>2021-07-20T17:28:10.467Z</time>
      </trkpt>
      <trkpt lat="45.98722" lon="4.53717">
        <ele>502.94951454096</ele>
        <time>2021-07-20T17:28:11.986Z</time>
      </trkpt>
      <trkpt lat="45.98736" lon="4.5372">
        <ele>501.01543068742</ele>
        <time>2021-07-20T17:28:13.510Z</time>
      </trkpt>
      <trkpt lat="45.98756" lon="4.53734">
        <ele>499.25591999693</ele>
        <time>2021-07-20T17:28:15.041Z</time>
      </trkpt>
      <trkpt lat="45.98766" lon="4.5374">
        <ele>497.50937759467</ele>
        <time>2021-07-20T17:28:16.576Z</time>
      </trkpt>
      <trkpt lat="45.98783" lon="4.53743">
        <ele>495.68217915764</ele>
        <time>2021-07-20T17:28:18.117Z</time>
      </trkpt>
      <trkpt lat="45.98802" lon="4.53742">
        <ele>493.98274037004</ele>
        <time>2021-07-20T17:28:19.664Z</time>
      </trkpt>
      <trkpt lat="45.98815" lon="4.53745">
        <ele>492.40116115246</ele>
        <time>2021-07-20T17:28:21.215Z</time>
      </trkpt>
      <trkpt lat="45.98839" lon="4.53722">
        <ele>490.60945343722</ele>
        <time>2021-07-20T17:28:22.776Z</time>
      </trkpt>
      <trkpt lat="45.98848" lon="4.53716">
        <ele>488.9928024672</ele>
        <time>2021-07-20T17:28:24.340Z</time>
      </trkpt>
      <trkpt lat="45.98865" lon="4.53712">
        <ele>487.45246981271</ele>
        <time>2021-07-20T17:28:25.910Z</time>
      </trkpt>
      <trkpt lat="45.98872" lon="4.53709">
        <ele>486.07112913651</ele>
        <time>2021-07-20T17:28:27.482Z</time>
      </trkpt>
      <trkpt lat="45.98897" lon="4.53684">
        <ele>484.56625686215</ele>
        <time>2021-07-20T17:28:29.065Z</time>
      </trkpt>
      <trkpt lat="45.98903" lon="4.53678">
        <ele>483.30699848795</ele>
        <time>2021-07-20T17:28:30.650Z</time>
      </trkpt>
      <trkpt lat="45.98935" lon="4.53638">
        <ele>482.04573902468</ele>
        <time>2021-07-20T17:28:32.249Z</time>
      </trkpt>
      <trkpt lat="45.98961" lon="4.5362">
        <ele>481.20267460501</ele>
        <time>2021-07-20T17:28:33.858Z</time>
      </trkpt>
      <trkpt lat="45.98974" lon="4.53604">
        <ele>480.12891029519</ele>
        <time>2021-07-20T17:28:35.473Z</time>
      </trkpt>
      <trkpt lat="45.98984" lon="4.53581">
        <ele>479.14163831625</ele>
        <time>2021-07-20T17:28:37.094Z</time>
      </trkpt>
      <trkpt lat="45.98992" lon="4.53558">
        <ele>478.14157908404</ele>
        <time>2021-07-20T17:28:38.721Z</time>
      </trkpt>
      <trkpt lat="45.98997" lon="4.53551">
        <ele>477.21570674402</ele>
        <time>2021-07-20T17:28:40.350Z</time>
      </trkpt>
      <trkpt lat="45.99009" lon="4.53546">
        <ele>476.34965556614</ele>
        <time>2021-07-20T17:28:41.983Z</time>
      </trkpt>
      <trkpt lat="45.99012" lon="4.53536">
        <ele>475.32579892786</ele>
        <time>2021-07-20T17:28:43.619Z</time>
      </trkpt>
      <trkpt lat="45.99019" lon="4.53529">
        <ele>474.31109145757</ele>
        <time>2021-07-20T17:28:45.258Z</time>
      </trkpt>
      <trkpt lat="45.99025" lon="4.53526">
        <ele>473.32552741361</ele>
        <time>2021-07-20T17:28:46.899Z</time>
      </trkpt>
      <trkpt lat="45.99034" lon="4.53526">
        <ele>472.3587014607</ele>
        <time>2021-07-20T17:28:48.543Z</time>
      </trkpt>
      <trkpt lat="45.99054" lon="4.53534">
        <ele>471.53331181652</ele>
        <time>2021-07-20T17:28:50.194Z</time>
      </trkpt>
      <trkpt lat="45.99099" lon="4.53547">
        <ele>470.71425914637</ele>
        <time>2021-07-20T17:28:51.860Z</time>
      </trkpt>
      <trkpt lat="45.99122" lon="4.53549">
        <ele>469.66657697858</ele>
        <time>2021-07-20T17:28:53.534Z</time>
      </trkpt>
      <trkpt lat="45.99143" lon="4.53544">
        <ele>468.30825200666</ele>
        <time>2021-07-20T17:28:55.215Z</time>
      </trkpt>
      <trkpt lat="45.99183" lon="4.53533">
        <ele>466.5772311344</ele>
        <time>2021-07-20T17:28:56.909Z</time>
      </trkpt>
      <trkpt lat="45.99219" lon="4.5352">
        <ele>465.16777303858</ele>
        <time>2021-07-20T17:28:58.616Z</time>
      </trkpt>
      <trkpt lat="45.99238" lon="4.53514">
        <ele>464.12536925528</ele>
        <time>2021-07-20T17:29:00.329Z</time>
      </trkpt>
      <trkpt lat="45.99258" lon="4.53511">
        <ele>463.14839118263</ele>
        <time>2021-07-20T17:29:02.049Z</time>
      </trkpt>
      <trkpt lat="45.9927" lon="4.53515">
        <ele>462.46671622954</ele>
        <time>2021-07-20T17:29:03.773Z</time>
      </trkpt>
      <trkpt lat="45.99282" lon="4.53524">
        <ele>462.02731310341</ele>
        <time>2021-07-20T17:29:05.502Z</time>
      </trkpt>
      <trkpt lat="45.99294" lon="4.53535">
        <ele>461.74948369111</ele>
        <time>2021-07-20T17:29:07.235Z</time>
      </trkpt>
      <trkpt lat="45.99301" lon="4.53527">
        <ele>461.46703378365</ele>
        <time>2021-07-20T17:29:08.971Z</time>
      </trkpt>
      <trkpt lat="45.99303" lon="4.53507">
        <ele>461.20648011464</ele>
        <time>2021-07-20T17:29:10.712Z</time>
      </trkpt>
      <trkpt lat="45.993" lon="4.53482">
        <ele>461.00809370362</ele>
        <time>2021-07-20T17:29:12.459Z</time>
      </trkpt>
      <trkpt lat="45.993" lon="4.53466">
        <ele>461.06620055982</ele>
        <time>2021-07-20T17:29:14.210Z</time>
      </trkpt>
      <trkpt lat="45.99303" lon="4.53458">
        <ele>461.39729653487</ele>
        <time>2021-07-20T17:29:15.963Z</time>
      </trkpt>
      <trkpt lat="45.99318" lon="4.53444">
        <ele>461.93482549418</ele>
        <time>2021-07-20T17:29:17.722Z</time>
      </trkpt>
      <trkpt lat="45.99336" lon="4.53435">
        <ele>462.7528062889</ele>
        <time>2021-07-20T17:29:19.487Z</time>
      </trkpt>
      <trkpt lat="45.99366" lon="4.53423">
        <ele>463.77560218261</ele>
        <time>2021-07-20T17:29:21.262Z</time>
      </trkpt>
      <trkpt lat="45.99406" lon="4.53406">
        <ele>464.86690436867</ele>
        <time>2021-07-20T17:29:23.051Z</time>
      </trkpt>
      <trkpt lat="45.99425" lon="4.534">
        <ele>466.11841975398</ele>
        <time>2021-07-20T17:29:24.847Z</time>
      </trkpt>
      <trkpt lat="45.99476" lon="4.53407">
        <ele>467.75436225561</ele>
        <time>2021-07-20T17:29:26.660Z</time>
      </trkpt>
      <trkpt lat="45.99501" lon="4.53407">
        <ele>469.21435059847</ele>
        <time>2021-07-20T17:29:28.481Z</time>
      </trkpt>
      <trkpt lat="45.99515" lon="4.53417">
        <ele>470.65213761017</ele>
        <time>2021-07-20T17:29:30.307Z</time>
      </trkpt>
      <trkpt lat="45.9955" lon="4.53438">
        <ele>472.07389846924</ele>
        <time>2021-07-20T17:29:32.146Z</time>
      </trkpt>
      <trkpt lat="45.99558" lon="4.53449">
        <ele>473.25772073876</ele>
        <time>2021-07-20T17:29:33.989Z</time>
      </trkpt>
      <trkpt lat="45.99558" lon="4.5343">
        <ele>474.03039641631</ele>
        <time>2021-07-20T17:29:35.836Z</time>
      </trkpt>
      <trkpt lat="45.99556" lon="4.53421">
        <ele>474.76043588237</ele>
        <time>2021-07-20T17:29:37.685Z</time>
      </trkpt>
      <trkpt lat="45.99549" lon="4.53414">
        <ele>475.37574046072</ele>
        <time>2021-07-20T17:29:39.537Z</time>
      </trkpt>
      <trkpt lat="45.99526" lon="4.53398">
        <ele>475.84752373157</ele>
        <time>2021-07-20T17:29:41.398Z</time>
      </trkpt>
      <trkpt lat="45.995" lon="4.5338">
        <ele>476.24644370047</ele>
        <time>2021-07-20T17:29:43.268Z</time>
      </trkpt>
      <trkpt lat="45.99493" lon="4.53374">
        <ele>476.72181725628</ele>
        <time>2021-07-20T17:29:45.141Z</time>
      </trkpt>
      <trkpt lat="45.99484" lon="4.53367">
        <ele>477.20425550467</ele>
        <time>2021-07-20T17:29:47.018Z</time>
      </trkpt>
      <trkpt lat="45.99398" lon="4.53342">
        <ele>477.49453045623</ele>
        <time>2021-07-20T17:29:48.924Z</time>
      </trkpt>
      <trkpt lat="45.99379" lon="4.53335">
        <ele>478.27061323167</ele>
        <time>2021-07-20T17:29:50.836Z</time>
      </trkpt>
      <trkpt lat="45.99357" lon="4.53323">
        <ele>479.24835233326</ele>
        <time>2021-07-20T17:29:52.756Z</time>
      </trkpt>
      <trkpt lat="45.99351" lon="4.53319">
        <ele>479.87650545961</ele>
        <time>2021-07-20T17:29:54.678Z</time>
      </trkpt>
      <trkpt lat="45.99346" lon="4.5332">
        <ele>480.23236721148</ele>
        <time>2021-07-20T17:29:56.602Z</time>
      </trkpt>
      <trkpt lat="45.99329" lon="4.53333">
        <ele>480.2058136511</ele>
        <time>2021-07-20T17:29:58.533Z</time>
      </trkpt>
      <trkpt lat="45.99312" lon="4.53342">
        <ele>479.88860817181</ele>
        <time>2021-07-20T17:30:00.470Z</time>
      </trkpt>
      <trkpt lat="45.99294" lon="4.53343">
        <ele>479.4468546948</ele>
        <time>2021-07-20T17:30:02.413Z</time>
      </trkpt>
      <trkpt lat="45.9926" lon="4.53337">
        <ele>478.72184241691</ele>
        <time>2021-07-20T17:30:04.367Z</time>
      </trkpt>
      <trkpt lat="45.99241" lon="4.5334">
        <ele>477.4904297293</ele>
        <time>2021-07-20T17:30:06.327Z</time>
      </trkpt>
      <trkpt lat="45.99233" lon="4.53343">
        <ele>475.74165211558</ele>
        <time>2021-07-20T17:30:08.290Z</time>
      </trkpt>
      <trkpt lat="45.99197" lon="4.53359">
        <ele>473.36096856229</ele>
        <time>2021-07-20T17:30:10.266Z</time>
      </trkpt>
      <trkpt lat="45.99189" lon="4.53362">
        <ele>470.64132008172</ele>
        <time>2021-07-20T17:30:12.244Z</time>
      </trkpt>
      <trkpt lat="45.99169" lon="4.53363">
        <ele>467.55442625034</ele>
        <time>2021-07-20T17:30:14.229Z</time>
      </trkpt>
      <trkpt lat="45.99142" lon="4.5337">
        <ele>463.88235990334</ele>
        <time>2021-07-20T17:30:16.223Z</time>
      </trkpt>
      <trkpt lat="45.991" lon="4.53375">
        <ele>459.69122553347</ele>
        <time>2021-07-20T17:30:18.231Z</time>
      </trkpt>
      <trkpt lat="45.99062" lon="4.53379">
        <ele>455.47162325832</ele>
        <time>2021-07-20T17:30:20.252Z</time>
      </trkpt>
      <trkpt lat="45.98986" lon="4.5338">
        <ele>451.38008105998</ele>
        <time>2021-07-20T17:30:22.298Z</time>
      </trkpt>
      <trkpt lat="45.98964" lon="4.53377">
        <ele>447.67736700464</ele>
        <time>2021-07-20T17:30:24.352Z</time>
      </trkpt>
      <trkpt lat="45.98953" lon="4.5337">
        <ele>444.37882476888</ele>
        <time>2021-07-20T17:30:26.410Z</time>
      </trkpt>
      <trkpt lat="45.98932" lon="4.53345">
        <ele>441.45355858751</ele>
        <time>2021-07-20T17:30:28.477Z</time>
      </trkpt>
      <trkpt lat="45.98914" lon="4.53325">
        <ele>439.01376742552</ele>
        <time>2021-07-20T17:30:30.551Z</time>
      </trkpt>
      <trkpt lat="45.98898" lon="4.53314">
        <ele>436.92541740321</ele>
        <time>2021-07-20T17:30:32.631Z</time>
      </trkpt>
      <trkpt lat="45.98879" lon="4.53301">
        <ele>435.15396091303</ele>
        <time>2021-07-20T17:30:34.718Z</time>
      </trkpt>
      <trkpt lat="45.98857" lon="4.53279">
        <ele>433.74458515761</ele>
        <time>2021-07-20T17:30:36.814Z</time>
      </trkpt>
      <trkpt lat="45.98841" lon="4.53257">
        <ele>432.61271146487</ele>
        <time>2021-07-20T17:30:38.918Z</time>
      </trkpt>
      <trkpt lat="45.98827" lon="4.53237">
        <ele>431.82570675315</ele>
        <time>2021-07-20T17:30:41.028Z</time>
      </trkpt>
      <trkpt lat="45.98798" lon="4.53198">
        <ele>431.45252834074</ele>
        <time>2021-07-20T17:30:43.152Z</time>
      </trkpt>
      <trkpt lat="45.98783" lon="4.53186">
        <ele>431.02794374042</ele>
        <time>2021-07-20T17:30:45.281Z</time>
      </trkpt>
      <trkpt lat="45.98751" lon="4.53173">
        <ele>430.37382150475</ele>
        <time>2021-07-20T17:30:47.421Z</time>
      </trkpt>
      <trkpt lat="45.98718" lon="4.53158">
        <ele>429.66897931497</ele>
        <time>2021-07-20T17:30:49.573Z</time>
      </trkpt>
      <trkpt lat="45.98706" lon="4.53149">
        <ele>429.0650177645</ele>
        <time>2021-07-20T17:30:51.729Z</time>
      </trkpt>
      <trkpt lat="45.98693" lon="4.5314">
        <ele>428.3069087142</ele>
        <time>2021-07-20T17:30:53.890Z</time>
      </trkpt>
      <trkpt lat="45.98684" lon="4.53135">
        <ele>427.3697875853</ele>
        <time>2021-07-20T17:30:56.054Z</time>
      </trkpt>
      <trkpt lat="45.98668" lon="4.53126">
        <ele>426.25302845496</ele>
        <time>2021-07-20T17:30:58.224Z</time>
      </trkpt>
      <trkpt lat="45.98647" lon="4.53123">
        <ele>424.79871298111</ele>
        <time>2021-07-20T17:31:00.401Z</time>
      </trkpt>
      <trkpt lat="45.98632" lon="4.5312">
        <ele>423.0011103422</ele>
        <time>2021-07-20T17:31:02.583Z</time>
      </trkpt>
      <trkpt lat="45.98576" lon="4.5311">
        <ele>420.56874844796</ele>
        <time>2021-07-20T17:31:04.784Z</time>
      </trkpt>
      <trkpt lat="45.98545" lon="4.53112">
        <ele>418.18779289216</ele>
        <time>2021-07-20T17:31:06.995Z</time>
      </trkpt>
      <trkpt lat="45.98486" lon="4.53097">
        <ele>415.46764894089</ele>
        <time>2021-07-20T17:31:09.226Z</time>
      </trkpt>
      <trkpt lat="45.98454" lon="4.53087">
        <ele>412.91522359061</ele>
        <time>2021-07-20T17:31:11.468Z</time>
      </trkpt>
      <trkpt lat="45.98419" lon="4.53075">
        <ele>410.61367928156</ele>
        <time>2021-07-20T17:31:13.722Z</time>
      </trkpt>
      <trkpt lat="45.98385" lon="4.53063">
        <ele>408.24038268608</ele>
        <time>2021-07-20T17:31:15.988Z</time>
      </trkpt>
      <trkpt lat="45.98368" lon="4.5306">
        <ele>406.07973563498</ele>
        <time>2021-07-20T17:31:18.260Z</time>
      </trkpt>
      <trkpt lat="45.98359" lon="4.53058">
        <ele>404.04159924373</ele>
        <time>2021-07-20T17:31:20.535Z</time>
      </trkpt>
      <trkpt lat="45.98332" lon="4.53046">
        <ele>402.13268172692</ele>
        <time>2021-07-20T17:31:22.819Z</time>
      </trkpt>
      <trkpt lat="45.9828" lon="4.53022">
        <ele>400.27615227745</ele>
        <time>2021-07-20T17:31:25.121Z</time>
      </trkpt>
      <trkpt lat="45.98244" lon="4.53014">
        <ele>398.30185520858</ele>
        <time>2021-07-20T17:31:27.436Z</time>
      </trkpt>
      <trkpt lat="45.98229" lon="4.53015">
        <ele>396.60885954326</ele>
        <time>2021-07-20T17:31:29.756Z</time>
      </trkpt>
      <trkpt lat="45.98216" lon="4.5302">
        <ele>395.06729904725</ele>
        <time>2021-07-20T17:31:32.080Z</time>
      </trkpt>
      <trkpt lat="45.98205" lon="4.53026">
        <ele>393.68625004093</ele>
        <time>2021-07-20T17:31:34.408Z</time>
      </trkpt>
      <trkpt lat="45.98158" lon="4.53046">
        <ele>392.5694255917</ele>
        <time>2021-07-20T17:31:36.752Z</time>
      </trkpt>
      <trkpt lat="45.9814" lon="4.53051">
        <ele>391.68260596365</ele>
        <time>2021-07-20T17:31:39.102Z</time>
      </trkpt>
      <trkpt lat="45.98093" lon="4.5306">
        <ele>390.91339339015</ele>
        <time>2021-07-20T17:31:41.468Z</time>
      </trkpt>
      <trkpt lat="45.98069" lon="4.5306">
        <ele>390.17109311427</ele>
        <time>2021-07-20T17:31:43.842Z</time>
      </trkpt>
      <trkpt lat="45.98051" lon="4.53058">
        <ele>389.59597992403</ele>
        <time>2021-07-20T17:31:46.222Z</time>
      </trkpt>
      <trkpt lat="45.98022" lon="4.5305">
        <ele>389.04964134971</ele>
        <time>2021-07-20T17:31:48.612Z</time>
      </trkpt>
      <trkpt lat="45.98013" lon="4.53049">
        <ele>388.68878284855</ele>
        <time>2021-07-20T17:31:51.005Z</time>
      </trkpt>
      <trkpt lat="45.98008" lon="4.53034">
        <ele>388.32421416324</ele>
        <time>2021-07-20T17:31:53.402Z</time>
      </trkpt>
      <trkpt lat="45.98003" lon="4.53024">
        <ele>388.13965511606</ele>
        <time>2021-07-20T17:31:55.802Z</time>
      </trkpt>
      <trkpt lat="45.97995" lon="4.53015">
        <ele>388.07986809593</ele>
        <time>2021-07-20T17:31:58.205Z</time>
      </trkpt>
      <trkpt lat="45.97987" lon="4.53012">
        <ele>387.99459758163</ele>
        <time>2021-07-20T17:32:00.611Z</time>
      </trkpt>
      <trkpt lat="45.97971" lon="4.53006">
        <ele>387.86423185367</ele>
        <time>2021-07-20T17:32:03.023Z</time>
      </trkpt>
      <trkpt lat="45.97957" lon="4.53003">
        <ele>387.68592306259</ele>
        <time>2021-07-20T17:32:05.439Z</time>
      </trkpt>
      <trkpt lat="45.97948" lon="4.52999">
        <ele>387.48221936715</ele>
        <time>2021-07-20T17:32:07.858Z</time>
      </trkpt>
      <trkpt lat="45.97948" lon="4.53">
        <ele>387.14439346505</ele>
        <time>2021-07-20T17:32:10.278Z</time>
      </trkpt>
      <trkpt lat="45.97912" lon="4.5299">
        <ele>386.72031798152</ele>
        <time>2021-07-20T17:32:12.710Z</time>
      </trkpt>
      <trkpt lat="45.9791" lon="4.5299">
        <ele>386.16333792185</ele>
        <time>2021-07-20T17:32:15.142Z</time>
      </trkpt>
      <trkpt lat="45.97843" lon="4.52971">
        <ele>385.17379839032</ele>
        <time>2021-07-20T17:32:17.597Z</time>
      </trkpt>
      <trkpt lat="45.97828" lon="4.52968">
        <ele>384.40644283478</ele>
        <time>2021-07-20T17:32:20.057Z</time>
      </trkpt>
      <trkpt lat="45.97814" lon="4.52971">
        <ele>383.50592785416</ele>
        <time>2021-07-20T17:32:22.522Z</time>
      </trkpt>
      <trkpt lat="45.97798" lon="4.52977">
        <ele>382.60583187833</ele>
        <time>2021-07-20T17:32:24.993Z</time>
      </trkpt>
      <trkpt lat="45.97782" lon="4.52977">
        <ele>381.60002892873</ele>
        <time>2021-07-20T17:32:27.469Z</time>
      </trkpt>
      <trkpt lat="45.97767" lon="4.52973">
        <ele>380.46847728352</ele>
        <time>2021-07-20T17:32:29.950Z</time>
      </trkpt>
      <trkpt lat="45.97727" lon="4.52952">
        <ele>379.2822325855</ele>
        <time>2021-07-20T17:32:32.445Z</time>
      </trkpt>
      <trkpt lat="45.97699" lon="4.52939">
        <ele>378.114214239</ele>
        <time>2021-07-20T17:32:34.950Z</time>
      </trkpt>
      <trkpt lat="45.97698" lon="4.52936">
        <ele>376.96763908345</ele>
        <time>2021-07-20T17:32:37.456Z</time>
      </trkpt>
      <trkpt lat="45.97692" lon="4.52929">
        <ele>375.7885747084</ele>
        <time>2021-07-20T17:32:39.964Z</time>
      </trkpt>
      <trkpt lat="45.97682" lon="4.52914">
        <ele>374.58341209655</ele>
        <time>2021-07-20T17:32:42.477Z</time>
      </trkpt>
      <trkpt lat="45.97666" lon="4.52898">
        <ele>373.30538003697</ele>
        <time>2021-07-20T17:32:44.997Z</time>
      </trkpt>
      <trkpt lat="45.97635" lon="4.52865">
        <ele>372.13620507879</ele>
        <time>2021-07-20T17:32:47.530Z</time>
      </trkpt>
      <trkpt lat="45.97597" lon="4.52838">
        <ele>370.92101714001</ele>
        <time>2021-07-20T17:32:50.077Z</time>
      </trkpt>
      <trkpt lat="45.97556" lon="4.52814">
        <ele>369.52190746408</ele>
        <time>2021-07-20T17:32:52.638Z</time>
      </trkpt>
      <trkpt lat="45.97524" lon="4.52788">
        <ele>368.32387342036</ele>
        <time>2021-07-20T17:32:55.212Z</time>
      </trkpt>
      <trkpt lat="45.97508" lon="4.52766">
        <ele>367.33450130908</ele>
        <time>2021-07-20T17:32:57.793Z</time>
      </trkpt>
      <trkpt lat="45.97501" lon="4.52761">
        <ele>366.36703937755</ele>
        <time>2021-07-20T17:33:00.377Z</time>
      </trkpt>
      <trkpt lat="45.97487" lon="4.52754">
        <ele>365.44634540631</ele>
        <time>2021-07-20T17:33:02.966Z</time>
      </trkpt>
      <trkpt lat="45.97475" lon="4.5274">
        <ele>364.63432250018</ele>
        <time>2021-07-20T17:33:05.560Z</time>
      </trkpt>
      <trkpt lat="45.97462" lon="4.52717">
        <ele>363.95422153497</ele>
        <time>2021-07-20T17:33:08.161Z</time>
      </trkpt>
      <trkpt lat="45.97447" lon="4.52699">
        <ele>363.2513733367</ele>
        <time>2021-07-20T17:33:10.768Z</time>
      </trkpt>
      <trkpt lat="45.97437" lon="4.52681">
        <ele>362.74851889204</ele>
        <time>2021-07-20T17:33:13.381Z</time>
      </trkpt>
      <trkpt lat="45.97419" lon="4.52636">
        <ele>362.51606720423</ele>
        <time>2021-07-20T17:33:16.006Z</time>
      </trkpt>
      <trkpt lat="45.97411" lon="4.52625">
        <ele>362.23712549348</ele>
        <time>2021-07-20T17:33:18.634Z</time>
      </trkpt>
      <trkpt lat="45.97406" lon="4.52619">
        <ele>362.09900138223</ele>
        <time>2021-07-20T17:33:21.265Z</time>
      </trkpt>
      <trkpt lat="45.97399" lon="4.52617">
        <ele>362.09836234371</ele>
        <time>2021-07-20T17:33:23.898Z</time>
      </trkpt>
      <trkpt lat="45.97391" lon="4.52618">
        <ele>362.28212562534</ele>
        <time>2021-07-20T17:33:26.534Z</time>
      </trkpt>
      <trkpt lat="45.97381" lon="4.52624">
        <ele>362.66554876395</ele>
        <time>2021-07-20T17:33:29.173Z</time>
      </trkpt>
      <trkpt lat="45.97371" lon="4.52624">
        <ele>363.325056324</ele>
        <time>2021-07-20T17:33:31.816Z</time>
      </trkpt>
      <trkpt lat="45.97364" lon="4.52619">
        <ele>364.30069727242</ele>
        <time>2021-07-20T17:33:34.461Z</time>
      </trkpt>
      <trkpt lat="45.9736" lon="4.52611">
        <ele>365.62886518602</ele>
        <time>2021-07-20T17:33:37.108Z</time>
      </trkpt>
      <trkpt lat="45.97337" lon="4.52541">
        <ele>367.69678176155</ele>
        <time>2021-07-20T17:33:39.773Z</time>
      </trkpt>
      <trkpt lat="45.9733" lon="4.52517">
        <ele>369.71800489594</ele>
        <time>2021-07-20T17:33:42.444Z</time>
      </trkpt>
      <trkpt lat="45.97322" lon="4.52489">
        <ele>371.94853808706</ele>
        <time>2021-07-20T17:33:45.122Z</time>
      </trkpt>
      <trkpt lat="45.97314" lon="4.52471">
        <ele>374.3111345009</ele>
        <time>2021-07-20T17:33:47.805Z</time>
      </trkpt>
      <trkpt lat="45.97309" lon="4.52462">
        <ele>376.72133966138</ele>
        <time>2021-07-20T17:33:50.491Z</time>
      </trkpt>
      <trkpt lat="45.97296" lon="4.52444">
        <ele>379.23573187427</ele>
        <time>2021-07-20T17:33:53.183Z</time>
      </trkpt>
      <trkpt lat="45.97277" lon="4.52415">
        <ele>381.93691371356</ele>
        <time>2021-07-20T17:33:55.884Z</time>
      </trkpt>
      <trkpt lat="45.9726" lon="4.52398">
        <ele>384.4311307347</ele>
        <time>2021-07-20T17:33:58.592Z</time>
      </trkpt>
      <trkpt lat="45.97254" lon="4.52392">
        <ele>386.72702996734</ele>
        <time>2021-07-20T17:34:01.303Z</time>
      </trkpt>
      <trkpt lat="45.97251" lon="4.52382">
        <ele>389.00918827293</ele>
        <time>2021-07-20T17:34:04.016Z</time>
      </trkpt>
      <trkpt lat="45.97243" lon="4.52369">
        <ele>391.15579657495</ele>
        <time>2021-07-20T17:34:06.733Z</time>
      </trkpt>
      <trkpt lat="45.97213" lon="4.523">
        <ele>393.39809569351</ele>
        <time>2021-07-20T17:34:09.469Z</time>
      </trkpt>
      <trkpt lat="45.97197" lon="4.52278">
        <ele>395.4133629633</ele>
        <time>2021-07-20T17:34:12.213Z</time>
      </trkpt>
      <trkpt lat="45.9721" lon="4.52271">
        <ele>397.55265306438</ele>
        <time>2021-07-20T17:34:14.961Z</time>
      </trkpt>
      <trkpt lat="45.97217" lon="4.52265">
        <ele>399.65515935656</ele>
        <time>2021-07-20T17:34:17.712Z</time>
      </trkpt>
      <trkpt lat="45.97224" lon="4.52248">
        <ele>401.72130887288</ele>
        <time>2021-07-20T17:34:20.468Z</time>
      </trkpt>
      <trkpt lat="45.97224" lon="4.52237">
        <ele>403.64369092495</ele>
        <time>2021-07-20T17:34:23.226Z</time>
      </trkpt>
      <trkpt lat="45.97222" lon="4.52221">
        <ele>405.54398084768</ele>
        <time>2021-07-20T17:34:25.988Z</time>
      </trkpt>
      <trkpt lat="45.97224" lon="4.52201">
        <ele>407.40820798498</ele>
        <time>2021-07-20T17:34:28.755Z</time>
      </trkpt>
      <trkpt lat="45.9723" lon="4.52179">
        <ele>409.29844850819</ele>
        <time>2021-07-20T17:34:31.527Z</time>
      </trkpt>
      <trkpt lat="45.97231" lon="4.52175">
        <ele>411.20595750717</ele>
        <time>2021-07-20T17:34:34.300Z</time>
      </trkpt>
      <trkpt lat="45.97244" lon="4.52141">
        <ele>413.36371175883</ele>
        <time>2021-07-20T17:34:37.082Z</time>
      </trkpt>
      <trkpt lat="45.97255" lon="4.52111">
        <ele>415.387744818</ele>
        <time>2021-07-20T17:34:39.872Z</time>
      </trkpt>
      <trkpt lat="45.97269" lon="4.52078">
        <ele>417.40264779138</ele>
        <time>2021-07-20T17:34:42.671Z</time>
      </trkpt>
      <trkpt lat="45.97274" lon="4.52047">
        <ele>419.20839707185</ele>
        <time>2021-07-20T17:34:45.477Z</time>
      </trkpt>
      <trkpt lat="45.97274" lon="4.52031">
        <ele>420.79983882994</ele>
        <time>2021-07-20T17:34:48.287Z</time>
      </trkpt>
      <trkpt lat="45.97267" lon="4.52003">
        <ele>422.09595421246</ele>
        <time>2021-07-20T17:34:51.104Z</time>
      </trkpt>
      <trkpt lat="45.97256" lon="4.51977">
        <ele>423.1573339826</ele>
        <time>2021-07-20T17:34:53.928Z</time>
      </trkpt>
      <trkpt lat="45.97235" lon="4.51949">
        <ele>423.9721483378</ele>
        <time>2021-07-20T17:34:56.762Z</time>
      </trkpt>
      <trkpt lat="45.9722" lon="4.51927">
        <ele>424.6005842308</ele>
        <time>2021-07-20T17:34:59.603Z</time>
      </trkpt>
      <trkpt lat="45.97209" lon="4.519">
        <ele>424.92751476628</ele>
        <time>2021-07-20T17:35:02.451Z</time>
      </trkpt>
      <trkpt lat="45.97198" lon="4.51886">
        <ele>424.7917129051</ele>
        <time>2021-07-20T17:35:05.304Z</time>
      </trkpt>
      <trkpt lat="45.97193" lon="4.51863">
        <ele>424.28308457267</ele>
        <time>2021-07-20T17:35:08.163Z</time>
      </trkpt>
      <trkpt lat="45.97188" lon="4.51819">
        <ele>423.32582724654</ele>
        <time>2021-07-20T17:35:11.032Z</time>
      </trkpt>
      <trkpt lat="45.97177" lon="4.51775">
        <ele>421.8968013254</ele>
        <time>2021-07-20T17:35:13.912Z</time>
      </trkpt>
      <trkpt lat="45.97161" lon="4.51746">
        <ele>420.01033951264</ele>
        <time>2021-07-20T17:35:16.800Z</time>
      </trkpt>
      <trkpt lat="45.97149" lon="4.5172">
        <ele>417.84268818014</ele>
        <time>2021-07-20T17:35:19.696Z</time>
      </trkpt>
      <trkpt lat="45.97138" lon="4.51697">
        <ele>415.42056176574</ele>
        <time>2021-07-20T17:35:22.598Z</time>
      </trkpt>
      <trkpt lat="45.97135" lon="4.51691">
        <ele>412.99682933121</ele>
        <time>2021-07-20T17:35:25.502Z</time>
      </trkpt>
      <trkpt lat="45.97113" lon="4.5167">
        <ele>410.29884945696</ele>
        <time>2021-07-20T17:35:28.415Z</time>
      </trkpt>
      <trkpt lat="45.97081" lon="4.51646">
        <ele>407.45723637608</ele>
        <time>2021-07-20T17:35:31.340Z</time>
      </trkpt>
      <trkpt lat="45.97071" lon="4.51636">
        <ele>404.91604189346</ele>
        <time>2021-07-20T17:35:34.269Z</time>
      </trkpt>
      <trkpt lat="45.97067" lon="4.51629">
        <ele>402.54261548324</ele>
        <time>2021-07-20T17:35:37.200Z</time>
      </trkpt>
      <trkpt lat="45.97063" lon="4.51605">
        <ele>400.28188519414</ele>
        <time>2021-07-20T17:35:40.137Z</time>
      </trkpt>
      <trkpt lat="45.97062" lon="4.51579">
        <ele>398.09779099746</ele>
        <time>2021-07-20T17:35:43.080Z</time>
      </trkpt>
      <trkpt lat="45.97056" lon="4.51555">
        <ele>396.0813204926</ele>
        <time>2021-07-20T17:35:46.029Z</time>
      </trkpt>
      <trkpt lat="45.97047" lon="4.51554">
        <ele>394.20283149569</ele>
        <time>2021-07-20T17:35:48.981Z</time>
      </trkpt>
      <trkpt lat="45.97022" lon="4.51553">
        <ele>392.30872453478</ele>
        <time>2021-07-20T17:35:51.941Z</time>
      </trkpt>
      <trkpt lat="45.96998" lon="4.51551">
        <ele>390.39450296295</ele>
        <time>2021-07-20T17:35:54.909Z</time>
      </trkpt>
      <trkpt lat="45.96984" lon="4.51579">
        <ele>388.56697282242</ele>
        <time>2021-07-20T17:35:57.885Z</time>
      </trkpt>
      <trkpt lat="45.96955" lon="4.51633">
        <ele>386.62158634185</ele>
        <time>2021-07-20T17:36:00.877Z</time>
      </trkpt>
      <trkpt lat="45.96929" lon="4.51688">
        <ele>384.51320078222</ele>
        <time>2021-07-20T17:36:03.884Z</time>
      </trkpt>
      <trkpt lat="45.96924" lon="4.51699">
        <ele>382.54164076235</ele>
        <time>2021-07-20T17:36:06.894Z</time>
      </trkpt>
      <trkpt lat="45.96909" lon="4.51737">
        <ele>380.324572243</ele>
        <time>2021-07-20T17:36:09.914Z</time>
      </trkpt>
      <trkpt lat="45.96903" lon="4.51758">
        <ele>378.19174349399</ele>
        <time>2021-07-20T17:36:12.940Z</time>
      </trkpt>
      <trkpt lat="45.96894" lon="4.51811">
        <ele>376.07956051251</ele>
        <time>2021-07-20T17:36:15.978Z</time>
      </trkpt>
      <trkpt lat="45.96896" lon="4.51846">
        <ele>374.07480727936</ele>
        <time>2021-07-20T17:36:19.025Z</time>
      </trkpt>
      <trkpt lat="45.96905" lon="4.51881">
        <ele>372.14560368899</ele>
        <time>2021-07-20T17:36:22.080Z</time>
      </trkpt>
      <trkpt lat="45.96908" lon="4.51896">
        <ele>370.30584085185</ele>
        <time>2021-07-20T17:36:25.139Z</time>
      </trkpt>
      <trkpt lat="45.96908" lon="4.51906">
        <ele>368.53918726137</ele>
        <time>2021-07-20T17:36:28.200Z</time>
      </trkpt>
      <trkpt lat="45.96896" lon="4.51897">
        <ele>366.76425240036</ele>
        <time>2021-07-20T17:36:31.266Z</time>
      </trkpt>
      <trkpt lat="45.96871" lon="4.51869">
        <ele>364.9294045883</ele>
        <time>2021-07-20T17:36:34.342Z</time>
      </trkpt>
      <trkpt lat="45.96854" lon="4.51843">
        <ele>363.29605323231</ele>
        <time>2021-07-20T17:36:37.427Z</time>
      </trkpt>
      <trkpt lat="45.96822" lon="4.51794">
        <ele>361.5277568447</ele>
        <time>2021-07-20T17:36:40.527Z</time>
      </trkpt>
      <trkpt lat="45.96803" lon="4.51765">
        <ele>360.00955475247</ele>
        <time>2021-07-20T17:36:43.636Z</time>
      </trkpt>
      <trkpt lat="45.96784" lon="4.51751">
        <ele>358.54179849948</ele>
        <time>2021-07-20T17:36:46.753Z</time>
      </trkpt>
      <trkpt lat="45.96772" lon="4.51746">
        <ele>357.08748339944</ele>
        <time>2021-07-20T17:36:49.874Z</time>
      </trkpt>
      <trkpt lat="45.96737" lon="4.51742">
        <ele>355.43158735832</ele>
        <time>2021-07-20T17:36:53.006Z</time>
      </trkpt>
      <trkpt lat="45.96694" lon="4.51739">
        <ele>353.17221453485</ele>
        <time>2021-07-20T17:36:56.153Z</time>
      </trkpt>
      <trkpt lat="45.96681" lon="4.51733">
        <ele>351.25474928639</ele>
        <time>2021-07-20T17:36:59.304Z</time>
      </trkpt>
      <trkpt lat="45.96668" lon="4.51721">
        <ele>349.24856096939</ele>
        <time>2021-07-20T17:37:02.461Z</time>
      </trkpt>
      <trkpt lat="45.96662" lon="4.5171">
        <ele>347.12947783984</ele>
        <time>2021-07-20T17:37:05.621Z</time>
      </trkpt>
      <trkpt lat="45.96647" lon="4.51691">
        <ele>344.73385452246</ele>
        <time>2021-07-20T17:37:08.787Z</time>
      </trkpt>
      <trkpt lat="45.96628" lon="4.51676">
        <ele>341.99257499654</ele>
        <time>2021-07-20T17:37:11.961Z</time>
      </trkpt>
      <trkpt lat="45.96611" lon="4.51668">
        <ele>339.05403187725</ele>
        <time>2021-07-20T17:37:15.141Z</time>
      </trkpt>
      <trkpt lat="45.9659" lon="4.51661">
        <ele>335.80378693841</ele>
        <time>2021-07-20T17:37:18.328Z</time>
      </trkpt>
      <trkpt lat="45.96565" lon="4.51656">
        <ele>332.14809975267</ele>
        <time>2021-07-20T17:37:21.523Z</time>
      </trkpt>
      <trkpt lat="45.96558" lon="4.51655">
        <ele>328.23623419642</ele>
        <time>2021-07-20T17:37:24.721Z</time>
      </trkpt>
      <trkpt lat="45.96537" lon="4.51656">
        <ele>323.91062914244</ele>
        <time>2021-07-20T17:37:27.926Z</time>
      </trkpt>
      <trkpt lat="45.96498" lon="4.51644">
        <ele>319.31842925676</ele>
        <time>2021-07-20T17:37:31.144Z</time>
      </trkpt>
      <trkpt lat="45.96445" lon="4.51633">
        <ele>314.23315665733</ele>
        <time>2021-07-20T17:37:34.380Z</time>
      </trkpt>
      <trkpt lat="45.96338" lon="4.5161">
        <ele>308.91084927845</ele>
        <time>2021-07-20T17:37:37.652Z</time>
      </trkpt>
      <trkpt lat="45.96249" lon="4.5159">
        <ele>303.99396922524</ele>
        <time>2021-07-20T17:37:40.954Z</time>
      </trkpt>
      <trkpt lat="45.9619" lon="4.51579">
        <ele>299.34999544582</ele>
        <time>2021-07-20T17:37:44.276Z</time>
      </trkpt>
      <trkpt lat="45.96176" lon="4.51577">
        <ele>295.4034008368</ele>
        <time>2021-07-20T17:37:47.602Z</time>
      </trkpt>
      <trkpt lat="45.96167" lon="4.51574">
        <ele>292.07392352941</ele>
        <time>2021-07-20T17:37:50.931Z</time>
      </trkpt>
      <trkpt lat="45.96148" lon="4.51613">
        <ele>289.32524176195</ele>
        <time>2021-07-20T17:37:54.272Z</time>
      </trkpt>
      <trkpt lat="45.9614" lon="4.51627">
        <ele>287.39133069949</ele>
        <time>2021-07-20T17:37:57.617Z</time>
      </trkpt>
      <trkpt lat="45.96116" lon="4.51662">
        <ele>286.17310242288</ele>
        <time>2021-07-20T17:38:00.973Z</time>
      </trkpt>
      <trkpt lat="45.96122" lon="4.51678">
        <ele>285.73367726827</ele>
        <time>2021-07-20T17:38:04.333Z</time>
      </trkpt>
      <trkpt lat="45.96125" lon="4.51686">
        <ele>285.92627891421</ele>
        <time>2021-07-20T17:38:07.696Z</time>
      </trkpt>
      <trkpt lat="45.96121" lon="4.51709">
        <ele>286.8205760446</ele>
        <time>2021-07-20T17:38:11.064Z</time>
      </trkpt>
      <trkpt lat="45.96106" lon="4.51755">
        <ele>288.36119551142</ele>
        <time>2021-07-20T17:38:14.444Z</time>
      </trkpt>
      <trkpt lat="45.96086" lon="4.51793">
        <ele>290.26326369098</ele>
        <time>2021-07-20T17:38:17.835Z</time>
      </trkpt>
      <trkpt lat="45.96078" lon="4.51803">
        <ele>292.44189869335</ele>
        <time>2021-07-20T17:38:21.229Z</time>
      </trkpt>
      <trkpt lat="45.96069" lon="4.5182">
        <ele>294.97393280479</ele>
        <time>2021-07-20T17:38:24.628Z</time>
      </trkpt>
      <trkpt lat="45.96059" lon="4.51846">
        <ele>297.79410600634</ele>
        <time>2021-07-20T17:38:28.034Z</time>
      </trkpt>
      <trkpt lat="45.96053" lon="4.51887">
        <ele>300.91629060697</ele>
        <time>2021-07-20T17:38:31.450Z</time>
      </trkpt>
      <trkpt lat="45.96048" lon="4.51938">
        <ele>304.26933960721</ele>
        <time>2021-07-20T17:38:34.878Z</time>
      </trkpt>
      <trkpt lat="45.96046" lon="4.51993">
        <ele>307.84190503036</ele>
        <time>2021-07-20T17:38:38.319Z</time>
      </trkpt>
      <trkpt lat="45.96047" lon="4.52006">
        <ele>311.3297475804</ele>
        <time>2021-07-20T17:38:41.763Z</time>
      </trkpt>
      <trkpt lat="45.96055" lon="4.52029">
        <ele>314.91224557058</ele>
        <time>2021-07-20T17:38:45.213Z</time>
      </trkpt>
      <trkpt lat="45.96064" lon="4.52054">
        <ele>318.55208700939</ele>
        <time>2021-07-20T17:38:48.669Z</time>
      </trkpt>
      <trkpt lat="45.96075" lon="4.52085">
        <ele>322.23567284381</ele>
        <time>2021-07-20T17:38:52.133Z</time>
      </trkpt>
      <trkpt lat="45.96091" lon="4.52118">
        <ele>325.90986700303</ele>
        <time>2021-07-20T17:38:55.607Z</time>
      </trkpt>
      <trkpt lat="45.96111" lon="4.52144">
        <ele>329.5961638841</ele>
        <time>2021-07-20T17:38:59.090Z</time>
      </trkpt>
      <trkpt lat="45.96144" lon="4.52191">
        <ele>333.36994319273</ele>
        <time>2021-07-20T17:39:02.588Z</time>
      </trkpt>
      <trkpt lat="45.96167" lon="4.52234">
        <ele>336.96616079321</ele>
        <time>2021-07-20T17:39:06.099Z</time>
      </trkpt>
      <trkpt lat="45.9619" lon="4.5227">
        <ele>340.39205884742</ele>
        <time>2021-07-20T17:39:09.621Z</time>
      </trkpt>
      <trkpt lat="45.96209" lon="4.52286">
        <ele>343.73674582859</ele>
        <time>2021-07-20T17:39:13.151Z</time>
      </trkpt>
      <trkpt lat="45.96232" lon="4.52302">
        <ele>346.87296716473</ele>
        <time>2021-07-20T17:39:16.689Z</time>
      </trkpt>
      <trkpt lat="45.96246" lon="4.52322">
        <ele>349.42406150139</ele>
        <time>2021-07-20T17:39:20.234Z</time>
      </trkpt>
      <trkpt lat="45.96258" lon="4.52346">
        <ele>351.49627040073</ele>
        <time>2021-07-20T17:39:23.786Z</time>
      </trkpt>
      <trkpt lat="45.96268" lon="4.52378">
        <ele>353.10951806026</ele>
        <time>2021-07-20T17:39:27.346Z</time>
      </trkpt>
      <trkpt lat="45.9627" lon="4.524">
        <ele>354.23180326163</ele>
        <time>2021-07-20T17:39:30.911Z</time>
      </trkpt>
      <trkpt lat="45.9627" lon="4.5241">
        <ele>354.86582469402</ele>
        <time>2021-07-20T17:39:34.478Z</time>
      </trkpt>
      <trkpt lat="45.96269" lon="4.52426">
        <ele>355.01573072531</ele>
        <time>2021-07-20T17:39:38.049Z</time>
      </trkpt>
      <trkpt lat="45.9627" lon="4.52483">
        <ele>354.57005390701</ele>
        <time>2021-07-20T17:39:41.633Z</time>
      </trkpt>
      <trkpt lat="45.96267" lon="4.52515">
        <ele>353.8207821415</ele>
        <time>2021-07-20T17:39:45.225Z</time>
      </trkpt>
      <trkpt lat="45.96262" lon="4.52533">
        <ele>352.82631745477</ele>
        <time>2021-07-20T17:39:48.821Z</time>
      </trkpt>
      <trkpt lat="45.96244" lon="4.52564">
        <ele>351.63936277732</ele>
        <time>2021-07-20T17:39:52.427Z</time>
      </trkpt>
      <trkpt lat="45.96222" lon="4.52608">
        <ele>350.21840332878</ele>
        <time>2021-07-20T17:39:56.045Z</time>
      </trkpt>
      <trkpt lat="45.96207" lon="4.52652">
        <ele>348.54739033946</ele>
        <time>2021-07-20T17:39:59.675Z</time>
      </trkpt>
      <trkpt lat="45.96204" lon="4.52675">
        <ele>346.90775433651</ele>
        <time>2021-07-20T17:40:03.310Z</time>
      </trkpt>
      <trkpt lat="45.9621" lon="4.52695">
        <ele>345.30251033624</ele>
        <time>2021-07-20T17:40:06.950Z</time>
      </trkpt>
      <trkpt lat="45.96217" lon="4.52704">
        <ele>343.76015260142</ele>
        <time>2021-07-20T17:40:10.593Z</time>
      </trkpt>
      <trkpt lat="45.96251" lon="4.5275">
        <ele>342.33041059668</ele>
        <time>2021-07-20T17:40:14.252Z</time>
      </trkpt>
      <trkpt lat="45.96283" lon="4.52793">
        <ele>340.98411326086</ele>
        <time>2021-07-20T17:40:17.925Z</time>
      </trkpt>
      <trkpt lat="45.96295" lon="4.52813">
        <ele>339.67609029068</ele>
        <time>2021-07-20T17:40:21.605Z</time>
      </trkpt>
      <trkpt lat="45.96311" lon="4.52849">
        <ele>338.4475328832</ele>
        <time>2021-07-20T17:40:25.295Z</time>
      </trkpt>
      <trkpt lat="45.96329" lon="4.52904">
        <ele>337.51143071908</ele>
        <time>2021-07-20T17:40:28.999Z</time>
      </trkpt>
      <trkpt lat="45.96354" lon="4.52988">
        <ele>337.05133026097</ele>
        <time>2021-07-20T17:40:32.724Z</time>
      </trkpt>
      <trkpt lat="45.96355" lon="4.52999">
        <ele>336.87794495317</ele>
        <time>2021-07-20T17:40:36.451Z</time>
      </trkpt>
      <trkpt lat="45.96348" lon="4.53018">
        <ele>337.03656656757</ele>
        <time>2021-07-20T17:40:40.183Z</time>
      </trkpt>
      <trkpt lat="45.9634" lon="4.53026">
        <ele>337.54159987575</ele>
        <time>2021-07-20T17:40:43.919Z</time>
      </trkpt>
      <trkpt lat="45.96327" lon="4.53028">
        <ele>338.39358001658</ele>
        <time>2021-07-20T17:40:47.659Z</time>
      </trkpt>
      <trkpt lat="45.96315" lon="4.53022">
        <ele>339.50464613976</ele>
        <time>2021-07-20T17:40:51.403Z</time>
      </trkpt>
      <trkpt lat="45.96297" lon="4.53029">
        <ele>341.03337227226</ele>
        <time>2021-07-20T17:40:55.154Z</time>
      </trkpt>
      <trkpt lat="45.96279" lon="4.5303">
        <ele>342.72979608267</ele>
        <time>2021-07-20T17:40:58.911Z</time>
      </trkpt>
      <trkpt lat="45.96224" lon="4.53028">
        <ele>344.73711500077</ele>
        <time>2021-07-20T17:41:02.686Z</time>
      </trkpt>
      <trkpt lat="45.9619" lon="4.53036">
        <ele>346.56421290272</ele>
        <time>2021-07-20T17:41:06.472Z</time>
      </trkpt>
      <trkpt lat="45.96171" lon="4.53043">
        <ele>348.39365819062</ele>
        <time>2021-07-20T17:41:10.265Z</time>
      </trkpt>
      <trkpt lat="45.96164" lon="4.53046">
        <ele>350.15991039224</ele>
        <time>2021-07-20T17:41:14.060Z</time>
      </trkpt>
      <trkpt lat="45.96121" lon="4.53067">
        <ele>351.99742813136</ele>
        <time>2021-07-20T17:41:17.871Z</time>
      </trkpt>
      <trkpt lat="45.96119" lon="4.53068">
        <ele>353.49688957137</ele>
        <time>2021-07-20T17:41:21.682Z</time>
      </trkpt>
      <trkpt lat="45.96097" lon="4.53077">
        <ele>354.91146850304</ele>
        <time>2021-07-20T17:41:25.501Z</time>
      </trkpt>
      <trkpt lat="45.96064" lon="4.53096">
        <ele>356.02547599958</ele>
        <time>2021-07-20T17:41:29.332Z</time>
      </trkpt>
      <trkpt lat="45.96047" lon="4.53106">
        <ele>356.82329963876</ele>
        <time>2021-07-20T17:41:33.169Z</time>
      </trkpt>
      <trkpt lat="45.96011" lon="4.53125">
        <ele>357.41674003637</ele>
        <time>2021-07-20T17:41:37.019Z</time>
      </trkpt>
      <trkpt lat="45.95983" lon="4.53133">
        <ele>357.8336100867</ele>
        <time>2021-07-20T17:41:40.878Z</time>
      </trkpt>
      <trkpt lat="45.95961" lon="4.53137">
        <ele>357.98655430827</ele>
        <time>2021-07-20T17:41:44.745Z</time>
      </trkpt>
      <trkpt lat="45.95945" lon="4.53151">
        <ele>358.01686925085</ele>
        <time>2021-07-20T17:41:48.618Z</time>
      </trkpt>
      <trkpt lat="45.95931" lon="4.53166">
        <ele>357.85112022815</ele>
        <time>2021-07-20T17:41:52.497Z</time>
      </trkpt>
      <trkpt lat="45.9591" lon="4.53196">
        <ele>357.46231976466</ele>
        <time>2021-07-20T17:41:56.386Z</time>
      </trkpt>
      <trkpt lat="45.95893" lon="4.53222">
        <ele>356.92350993055</ele>
        <time>2021-07-20T17:42:00.283Z</time>
      </trkpt>
      <trkpt lat="45.95876" lon="4.53249">
        <ele>356.36618825338</ele>
        <time>2021-07-20T17:42:04.188Z</time>
      </trkpt>
      <trkpt lat="45.95874" lon="4.53257">
        <ele>355.82417057784</ele>
        <time>2021-07-20T17:42:08.095Z</time>
      </trkpt>
      <trkpt lat="45.95871" lon="4.5334">
        <ele>355.30259318831</ele>
        <time>2021-07-20T17:42:12.022Z</time>
      </trkpt>
      <trkpt lat="45.95853" lon="4.53347">
        <ele>354.63876406491</ele>
        <time>2021-07-20T17:42:15.955Z</time>
      </trkpt>
      <trkpt lat="45.95841" lon="4.53351">
        <ele>354.01684984025</ele>
        <time>2021-07-20T17:42:19.892Z</time>
      </trkpt>
      <trkpt lat="45.95839" lon="4.53355">
        <ele>353.41717532038</ele>
        <time>2021-07-20T17:42:23.830Z</time>
      </trkpt>
      <trkpt lat="45.95836" lon="4.53373">
        <ele>352.74941620472</ele>
        <time>2021-07-20T17:42:27.772Z</time>
      </trkpt>
      <trkpt lat="45.9583" lon="4.53373">
        <ele>352.03354034435</ele>
        <time>2021-07-20T17:42:31.716Z</time>
      </trkpt>
      <trkpt lat="45.95801" lon="4.53369">
        <ele>351.18149018548</ele>
        <time>2021-07-20T17:42:35.670Z</time>
      </trkpt>
      <trkpt lat="45.95787" lon="4.53365">
        <ele>350.30679124657</ele>
        <time>2021-07-20T17:42:39.629Z</time>
      </trkpt>
      <trkpt lat="45.9577" lon="4.53357">
        <ele>349.33023401409</ele>
        <time>2021-07-20T17:42:43.594Z</time>
      </trkpt>
      <trkpt lat="45.95759" lon="4.53374">
        <ele>348.12029027631</ele>
        <time>2021-07-20T17:42:47.564Z</time>
      </trkpt>
      <trkpt lat="45.9575" lon="4.53385">
        <ele>346.67412748076</ele>
        <time>2021-07-20T17:42:51.538Z</time>
      </trkpt>
      <trkpt lat="45.95744" lon="4.53388">
        <ele>344.99073238677</ele>
        <time>2021-07-20T17:42:55.514Z</time>
      </trkpt>
      <trkpt lat="45.95742" lon="4.534">
        <ele>343.00285158435</ele>
        <time>2021-07-20T17:42:59.493Z</time>
      </trkpt>
      <trkpt lat="45.95741" lon="4.53428">
        <ele>340.67353392688</ele>
        <time>2021-07-20T17:43:03.479Z</time>
      </trkpt>
      <trkpt lat="45.95739" lon="4.53465">
        <ele>338.04815951915</ele>
        <time>2021-07-20T17:43:07.473Z</time>
      </trkpt>
      <trkpt lat="45.95733" lon="4.53507">
        <ele>335.17521137608</ele>
        <time>2021-07-20T17:43:11.477Z</time>
      </trkpt>
      <trkpt lat="45.95729" lon="4.53541">
        <ele>332.15911402272</ele>
        <time>2021-07-20T17:43:15.489Z</time>
      </trkpt>
      <trkpt lat="45.95721" lon="4.53592">
        <ele>329.04890627214</ele>
        <time>2021-07-20T17:43:19.513Z</time>
      </trkpt>
      <trkpt lat="45.95715" lon="4.53613">
        <ele>326.22258203859</ele>
        <time>2021-07-20T17:43:23.543Z</time>
      </trkpt>
      <trkpt lat="45.95706" lon="4.53629">
        <ele>323.56583741577</ele>
        <time>2021-07-20T17:43:27.577Z</time>
      </trkpt>
      <trkpt lat="45.95678" lon="4.5365">
        <ele>320.90601615372</ele>
        <time>2021-07-20T17:43:31.622Z</time>
      </trkpt>
      <trkpt lat="45.95664" lon="4.53665">
        <ele>318.61440719531</ele>
        <time>2021-07-20T17:43:35.673Z</time>
      </trkpt>
      <trkpt lat="45.95649" lon="4.53692">
        <ele>316.51320053988</ele>
        <time>2021-07-20T17:43:39.732Z</time>
      </trkpt>
      <trkpt lat="45.95641" lon="4.53711">
        <ele>314.79859278346</ele>
        <time>2021-07-20T17:43:43.796Z</time>
      </trkpt>
      <trkpt lat="45.95642" lon="4.5372">
        <ele>313.52253193541</ele>
        <time>2021-07-20T17:43:47.862Z</time>
      </trkpt>
      <trkpt lat="45.95647" lon="4.53745">
        <ele>312.67915892931</ele>
        <time>2021-07-20T17:43:51.934Z</time>
      </trkpt>
      <trkpt lat="45.95661" lon="4.53793">
        <ele>312.13714548631</ele>
        <time>2021-07-20T17:43:56.018Z</time>
      </trkpt>
      <trkpt lat="45.95675" lon="4.53835">
        <ele>311.85116516265</ele>
        <time>2021-07-20T17:44:00.113Z</time>
      </trkpt>
      <trkpt lat="45.95682" lon="4.53861">
        <ele>311.82851349656</ele>
        <time>2021-07-20T17:44:04.215Z</time>
      </trkpt>
      <trkpt lat="45.95684" lon="4.53873">
        <ele>312.11193216663</ele>
        <time>2021-07-20T17:44:08.319Z</time>
      </trkpt>
      <trkpt lat="45.9569" lon="4.53887">
        <ele>312.67154386264</ele>
        <time>2021-07-20T17:44:12.427Z</time>
      </trkpt>
      <trkpt lat="45.95699" lon="4.53897">
        <ele>313.43647814179</ele>
        <time>2021-07-20T17:44:16.539Z</time>
      </trkpt>
      <trkpt lat="45.95714" lon="4.53912">
        <ele>314.38978459303</ele>
        <time>2021-07-20T17:44:20.657Z</time>
      </trkpt>
      <trkpt lat="45.9572" lon="4.53923">
        <ele>315.39284995701</ele>
        <time>2021-07-20T17:44:24.778Z</time>
      </trkpt>
      <trkpt lat="45.95725" lon="4.53929">
        <ele>316.48425478339</ele>
        <time>2021-07-20T17:44:28.902Z</time>
      </trkpt>
      <trkpt lat="45.95745" lon="4.53934">
        <ele>317.69638691372</ele>
        <time>2021-07-20T17:44:33.032Z</time>
      </trkpt>
      <trkpt lat="45.95746" lon="4.53934">
        <ele>318.86955289842</ele>
        <time>2021-07-20T17:44:37.163Z</time>
      </trkpt>
      <trkpt lat="45.95763" lon="4.53938">
        <ele>320.14710952204</ele>
        <time>2021-07-20T17:44:41.299Z</time>
      </trkpt>
      <trkpt lat="45.95784" lon="4.53945">
        <ele>321.3962035231</ele>
        <time>2021-07-20T17:44:45.443Z</time>
      </trkpt>
      <trkpt lat="45.95825" lon="4.53966">
        <ele>322.69501537929</ele>
        <time>2021-07-20T17:44:49.601Z</time>
      </trkpt>
      <trkpt lat="45.95845" lon="4.53987">
        <ele>323.80702216385</ele>
        <time>2021-07-20T17:44:53.767Z</time>
      </trkpt>
      <trkpt lat="45.95856" lon="4.54009">
        <ele>324.91880475308</ele>
        <time>2021-07-20T17:44:57.940Z</time>
      </trkpt>
      <trkpt lat="45.95866" lon="4.54046">
        <ele>325.91440207594</ele>
        <time>2021-07-20T17:45:02.122Z</time>
      </trkpt>
      <trkpt lat="45.95879" lon="4.54077">
        <ele>326.93103705897</ele>
        <time>2021-07-20T17:45:06.312Z</time>
      </trkpt>
      <trkpt lat="45.95888" lon="4.54086">
        <ele>328.02945078871</ele>
        <time>2021-07-20T17:45:10.506Z</time>
      </trkpt>
      <trkpt lat="45.95909" lon="4.54096">
        <ele>329.21023424729</ele>
        <time>2021-07-20T17:45:14.707Z</time>
      </trkpt>
      <trkpt lat="45.95917" lon="4.54098">
        <ele>330.28438982626</ele>
        <time>2021-07-20T17:45:18.911Z</time>
      </trkpt>
      <trkpt lat="45.95934" lon="4.54099">
        <ele>331.42340959298</ele>
        <time>2021-07-20T17:45:23.121Z</time>
      </trkpt>
      <trkpt lat="45.95964" lon="4.54087">
        <ele>332.6418844672</ele>
        <time>2021-07-20T17:45:27.341Z</time>
      </trkpt>
      <trkpt lat="45.95968" lon="4.54096">
        <ele>333.38232170574</ele>
        <time>2021-07-20T17:45:31.564Z</time>
      </trkpt>
      <trkpt lat="45.95968" lon="4.54098">
        <ele>334.00258548273</ele>
        <time>2021-07-20T17:45:35.787Z</time>
      </trkpt>
      <trkpt lat="45.95967" lon="4.5411">
        <ele>334.40230108523</ele>
        <time>2021-07-20T17:45:40.013Z</time>
      </trkpt>
      <trkpt lat="45.95966" lon="4.54127">
        <ele>334.62842143368</ele>
        <time>2021-07-20T17:45:44.243Z</time>
      </trkpt>
      <trkpt lat="45.95971" lon="4.54134">
        <ele>334.95009367612</ele>
        <time>2021-07-20T17:45:48.475Z</time>
      </trkpt>
      <trkpt lat="45.96006" lon="4.54171">
        <ele>335.56160853146</ele>
        <time>2021-07-20T17:45:52.722Z</time>
      </trkpt>
      <trkpt lat="45.96027" lon="4.54198">
        <ele>335.94580754284</ele>
        <time>2021-07-20T17:45:56.978Z</time>
      </trkpt>
      <trkpt lat="45.9604" lon="4.5422">
        <ele>336.07363312311</ele>
        <time>2021-07-20T17:46:01.241Z</time>
      </trkpt>
      <trkpt lat="45.96049" lon="4.54239">
        <ele>336.17446022854</ele>
        <time>2021-07-20T17:46:05.509Z</time>
      </trkpt>
      <trkpt lat="45.96061" lon="4.54272">
        <ele>336.24982505417</ele>
        <time>2021-07-20T17:46:09.786Z</time>
      </trkpt>
      <trkpt lat="45.96077" lon="4.54334">
        <ele>336.36307921271</ele>
        <time>2021-07-20T17:46:14.078Z</time>
      </trkpt>
      <trkpt lat="45.96088" lon="4.54354">
        <ele>336.49621264659</ele>
        <time>2021-07-20T17:46:18.376Z</time>
      </trkpt>
      <trkpt lat="45.96108" lon="4.54383">
        <ele>336.75310703857</ele>
        <time>2021-07-20T17:46:22.684Z</time>
      </trkpt>
      <trkpt lat="45.96122" lon="4.54396">
        <ele>337.10219534803</ele>
        <time>2021-07-20T17:46:26.997Z</time>
      </trkpt>
      <trkpt lat="45.9613" lon="4.54402">
        <ele>337.46887641271</ele>
        <time>2021-07-20T17:46:31.313Z</time>
      </trkpt>
      <trkpt lat="45.96145" lon="4.54415">
        <ele>337.9172732089</ele>
        <time>2021-07-20T17:46:35.635Z</time>
      </trkpt>
      <trkpt lat="45.9616" lon="4.54438">
        <ele>338.37565649652</ele>
        <time>2021-07-20T17:46:39.964Z</time>
      </trkpt>
      <trkpt lat="45.96175" lon="4.54453">
        <ele>338.87280105431</ele>
        <time>2021-07-20T17:46:44.299Z</time>
      </trkpt>
      <trkpt lat="45.96181" lon="4.54459">
        <ele>339.43293252974</ele>
        <time>2021-07-20T17:46:48.637Z</time>
      </trkpt>
      <trkpt lat="45.96201" lon="4.54474">
        <ele>340.13113616175</ele>
        <time>2021-07-20T17:46:52.982Z</time>
      </trkpt>
      <trkpt lat="45.96212" lon="4.54491">
        <ele>340.85942844411</ele>
        <time>2021-07-20T17:46:57.333Z</time>
      </trkpt>
      <trkpt lat="45.96222" lon="4.54501">
        <ele>341.63135228726</ele>
        <time>2021-07-20T17:47:01.688Z</time>
      </trkpt>
      <trkpt lat="45.96253" lon="4.54525">
        <ele>342.46743882512</ele>
        <time>2021-07-20T17:47:06.055Z</time>
      </trkpt>
      <trkpt lat="45.96254" lon="4.54529">
        <ele>343.27594273609</ele>
        <time>2021-07-20T17:47:10.423Z</time>
      </trkpt>
      <trkpt lat="45.96263" lon="4.54572">
        <ele>344.05565650641</ele>
        <time>2021-07-20T17:47:14.801Z</time>
      </trkpt>
      <trkpt lat="45.96268" lon="4.54594">
        <ele>345.04257087392</ele>
        <time>2021-07-20T17:47:19.184Z</time>
      </trkpt>
      <trkpt lat="45.96273" lon="4.54604">
        <ele>346.12899004481</ele>
        <time>2021-07-20T17:47:23.570Z</time>
      </trkpt>
      <trkpt lat="45.9628" lon="4.54609">
        <ele>347.2161396731</ele>
        <time>2021-07-20T17:47:27.959Z</time>
      </trkpt>
      <trkpt lat="45.96291" lon="4.54613">
        <ele>348.3410545591</ele>
        <time>2021-07-20T17:47:32.352Z</time>
      </trkpt>
      <trkpt lat="45.96307" lon="4.54618">
        <ele>349.60849997147</ele>
        <time>2021-07-20T17:47:36.750Z</time>
      </trkpt>
      <trkpt lat="45.96318" lon="4.54626">
        <ele>350.94628565866</ele>
        <time>2021-07-20T17:47:41.152Z</time>
      </trkpt>
      <trkpt lat="45.96357" lon="4.54637">
        <ele>352.18273586649</ele>
        <time>2021-07-20T17:47:45.567Z</time>
      </trkpt>
      <trkpt lat="45.96367" lon="4.54642">
        <ele>353.45232065574</ele>
        <time>2021-07-20T17:47:49.986Z</time>
      </trkpt>
      <trkpt lat="45.96382" lon="4.54654">
        <ele>354.80208384003</ele>
        <time>2021-07-20T17:47:54.411Z</time>
      </trkpt>
      <trkpt lat="45.96391" lon="4.54664">
        <ele>356.07359650728</ele>
        <time>2021-07-20T17:47:58.840Z</time>
      </trkpt>
      <trkpt lat="45.964" lon="4.54672">
        <ele>357.2353261144</ele>
        <time>2021-07-20T17:48:03.272Z</time>
      </trkpt>
      <trkpt lat="45.96457" lon="4.54708">
        <ele>358.38605370056</ele>
        <time>2021-07-20T17:48:07.725Z</time>
      </trkpt>
      <trkpt lat="45.96466" lon="4.54714">
        <ele>359.23598769869</ele>
        <time>2021-07-20T17:48:12.181Z</time>
      </trkpt>
      <trkpt lat="45.96517" lon="4.54741">
        <ele>359.93505596253</ele>
        <time>2021-07-20T17:48:16.655Z</time>
      </trkpt>
      <trkpt lat="45.96552" lon="4.54776">
        <ele>360.79846604262</ele>
        <time>2021-07-20T17:48:21.144Z</time>
      </trkpt>
      <trkpt lat="45.96569" lon="4.54803">
        <ele>361.50118652262</ele>
        <time>2021-07-20T17:48:25.641Z</time>
      </trkpt>
      <trkpt lat="45.96582" lon="4.54816">
        <ele>362.00651994352</ele>
        <time>2021-07-20T17:48:30.143Z</time>
      </trkpt>
      <trkpt lat="45.96587" lon="4.54818">
        <ele>362.4393645398</ele>
        <time>2021-07-20T17:48:34.647Z</time>
      </trkpt>
      <trkpt lat="45.96605" lon="4.54824">
        <ele>362.84115580714</ele>
        <time>2021-07-20T17:48:39.157Z</time>
      </trkpt>
      <trkpt lat="45.9662" lon="4.54826">
        <ele>363.29929034947</ele>
        <time>2021-07-20T17:48:43.672Z</time>
      </trkpt>
      <trkpt lat="45.96677" lon="4.54825">
        <ele>363.70339662867</ele>
        <time>2021-07-20T17:48:48.206Z</time>
      </trkpt>
      <trkpt lat="45.96698" lon="4.54823">
        <ele>364.39611318518</ele>
        <time>2021-07-20T17:48:52.747Z</time>
      </trkpt>
      <trkpt lat="45.96733" lon="4.5482">
        <ele>365.07904120332</ele>
        <time>2021-07-20T17:48:57.300Z</time>
      </trkpt>
      <trkpt lat="45.96747" lon="4.54828">
        <ele>365.96273450291</ele>
        <time>2021-07-20T17:49:01.858Z</time>
      </trkpt>
      <trkpt lat="45.96757" lon="4.54838">
        <ele>367.00682025339</ele>
        <time>2021-07-20T17:49:06.420Z</time>
      </trkpt>
      <trkpt lat="45.96816" lon="4.54897">
        <ele>368.36039532943</ele>
        <time>2021-07-20T17:49:11.006Z</time>
      </trkpt>
      <trkpt lat="45.96832" lon="4.54909">
        <ele>369.5347247218</ele>
        <time>2021-07-20T17:49:15.598Z</time>
      </trkpt>
      <trkpt lat="45.96847" lon="4.54927">
        <ele>370.87251550909</ele>
        <time>2021-07-20T17:49:20.197Z</time>
      </trkpt>
      <trkpt lat="45.96853" lon="4.54938">
        <ele>372.20461631392</ele>
        <time>2021-07-20T17:49:24.799Z</time>
      </trkpt>
      <trkpt lat="45.96883" lon="4.54955">
        <ele>373.36511209148</ele>
        <time>2021-07-20T17:49:29.412Z</time>
      </trkpt>
      <trkpt lat="45.96906" lon="4.54964">
        <ele>374.25622710142</ele>
        <time>2021-07-20T17:49:34.032Z</time>
      </trkpt>
      <trkpt lat="45.96923" lon="4.54973">
        <ele>375.19017880209</ele>
        <time>2021-07-20T17:49:38.659Z</time>
      </trkpt>
      <trkpt lat="45.96933" lon="4.54982">
        <ele>376.09808515439</ele>
        <time>2021-07-20T17:49:43.289Z</time>
      </trkpt>
      <trkpt lat="45.96934" lon="4.54987">
        <ele>376.9512595827</ele>
        <time>2021-07-20T17:49:47.921Z</time>
      </trkpt>
      <trkpt lat="45.9693" lon="4.55015">
        <ele>377.92588725163</ele>
        <time>2021-07-20T17:49:52.559Z</time>
      </trkpt>
      <trkpt lat="45.96926" lon="4.55039">
        <ele>378.72701613503</ele>
        <time>2021-07-20T17:49:57.203Z</time>
      </trkpt>
      <trkpt lat="45.96927" lon="4.55044">
        <ele>379.19303621994</ele>
        <time>2021-07-20T17:50:01.848Z</time>
      </trkpt>
      <trkpt lat="45.96935" lon="4.55044">
        <ele>379.48793899332</ele>
        <time>2021-07-20T17:50:06.496Z</time>
      </trkpt>
      <trkpt lat="45.96946" lon="4.5504">
        <ele>379.6226546314</ele>
        <time>2021-07-20T17:50:11.148Z</time>
      </trkpt>
      <trkpt lat="45.96965" lon="4.55025">
        <ele>379.49634878584</ele>
        <time>2021-07-20T17:50:15.807Z</time>
      </trkpt>
      <trkpt lat="45.96966" lon="4.55025">
        <ele>379.50306528674</ele>
        <time>2021-07-20T17:50:20.466Z</time>
      </trkpt>
      <trkpt lat="45.96983" lon="4.55023">
        <ele>379.51274533475</ele>
        <time>2021-07-20T17:50:25.131Z</time>
      </trkpt>
      <trkpt lat="45.97001" lon="4.55025">
        <ele>379.44238058481</ele>
        <time>2021-07-20T17:50:29.802Z</time>
      </trkpt>
      <trkpt lat="45.97025" lon="4.55028">
        <ele>379.48732944819</ele>
        <time>2021-07-20T17:50:34.481Z</time>
      </trkpt>
      <trkpt lat="45.97054" lon="4.55024">
        <ele>379.67937732031</ele>
        <time>2021-07-20T17:50:39.170Z</time>
      </trkpt>
      <trkpt lat="45.97065" lon="4.55023">
        <ele>379.93388151222</ele>
        <time>2021-07-20T17:50:43.862Z</time>
      </trkpt>
      <trkpt lat="45.9709" lon="4.55016">
        <ele>380.32527003177</ele>
        <time>2021-07-20T17:50:48.563Z</time>
      </trkpt>
      <trkpt lat="45.9711" lon="4.55016">
        <ele>380.7749445336</ele>
        <time>2021-07-20T17:50:53.271Z</time>
      </trkpt>
      <trkpt lat="45.97135" lon="4.55033">
        <ele>381.34281734344</ele>
        <time>2021-07-20T17:50:57.988Z</time>
      </trkpt>
      <trkpt lat="45.97148" lon="4.55035">
        <ele>381.9162787333</ele>
        <time>2021-07-20T17:51:02.709Z</time>
      </trkpt>
      <trkpt lat="45.97152" lon="4.55031">
        <ele>382.55686193878</ele>
        <time>2021-07-20T17:51:07.432Z</time>
      </trkpt>
      <trkpt lat="45.97167" lon="4.55045">
        <ele>383.33408349377</ele>
        <time>2021-07-20T17:51:12.161Z</time>
      </trkpt>
      <trkpt lat="45.9717" lon="4.55048">
        <ele>384.19572050779</ele>
        <time>2021-07-20T17:51:16.891Z</time>
      </trkpt>
      <trkpt lat="45.97183" lon="4.55057">
        <ele>385.20571227145</ele>
        <time>2021-07-20T17:51:21.626Z</time>
      </trkpt>
      <trkpt lat="45.97192" lon="4.55066">
        <ele>386.31298956107</ele>
        <time>2021-07-20T17:51:26.364Z</time>
      </trkpt>
      <trkpt lat="45.97203" lon="4.5507">
        <ele>387.57265756692</ele>
        <time>2021-07-20T17:51:31.106Z</time>
      </trkpt>
      <trkpt lat="45.97215" lon="4.55077">
        <ele>388.91963113717</ele>
        <time>2021-07-20T17:51:35.853Z</time>
      </trkpt>
      <trkpt lat="45.97233" lon="4.55084">
        <ele>390.40286521356</ele>
        <time>2021-07-20T17:51:40.606Z</time>
      </trkpt>
      <trkpt lat="45.97263" lon="4.55111">
        <ele>391.9530654109</ele>
        <time>2021-07-20T17:51:45.371Z</time>
      </trkpt>
      <trkpt lat="45.97274" lon="4.55127">
        <ele>393.50943791348</ele>
        <time>2021-07-20T17:51:50.141Z</time>
      </trkpt>
      <trkpt lat="45.97285" lon="4.55152">
        <ele>395.07883590133</ele>
        <time>2021-07-20T17:51:54.918Z</time>
      </trkpt>
      <trkpt lat="45.97298" lon="4.55171">
        <ele>396.61968933522</ele>
        <time>2021-07-20T17:51:59.701Z</time>
      </trkpt>
      <trkpt lat="45.97316" lon="4.55202">
        <ele>398.06237825501</ele>
        <time>2021-07-20T17:52:04.493Z</time>
      </trkpt>
      <trkpt lat="45.97335" lon="4.55224">
        <ele>399.60717809817</ele>
        <time>2021-07-20T17:52:09.293Z</time>
      </trkpt>
      <trkpt lat="45.9738" lon="4.55261">
        <ele>401.29821976511</ele>
        <time>2021-07-20T17:52:14.111Z</time>
      </trkpt>
      <trkpt lat="45.97388" lon="4.55266">
        <ele>402.81950664429</ele>
        <time>2021-07-20T17:52:18.932Z</time>
      </trkpt>
      <trkpt lat="45.97402" lon="4.55286">
        <ele>404.35154366907</ele>
        <time>2021-07-20T17:52:23.759Z</time>
      </trkpt>
      <trkpt lat="45.97416" lon="4.55306">
        <ele>405.95256074822</ele>
        <time>2021-07-20T17:52:28.593Z</time>
      </trkpt>
      <trkpt lat="45.97421" lon="4.55343">
        <ele>407.51852961651</ele>
        <time>2021-07-20T17:52:33.436Z</time>
      </trkpt>
      <trkpt lat="45.97424" lon="4.55356">
        <ele>409.20648818925</ele>
        <time>2021-07-20T17:52:38.282Z</time>
      </trkpt>
      <trkpt lat="45.9744" lon="4.55383">
        <ele>411.08757251975</ele>
        <time>2021-07-20T17:52:43.136Z</time>
      </trkpt>
      <trkpt lat="45.9746" lon="4.55415">
        <ele>413.16364324319</ele>
        <time>2021-07-20T17:52:48.000Z</time>
      </trkpt>
      <trkpt lat="45.975" lon="4.55466">
        <ele>415.59925834563</ele>
        <time>2021-07-20T17:52:52.882Z</time>
      </trkpt>
      <trkpt lat="45.97512" lon="4.55477">
        <ele>417.25410779313</ele>
        <time>2021-07-20T17:52:57.769Z</time>
      </trkpt>
      <trkpt lat="45.97519" lon="4.55479">
        <ele>418.62431436737</ele>
        <time>2021-07-20T17:53:02.658Z</time>
      </trkpt>
      <trkpt lat="45.97531" lon="4.5548">
        <ele>419.70311060068</ele>
        <time>2021-07-20T17:53:07.551Z</time>
      </trkpt>
      <trkpt lat="45.97545" lon="4.55476">
        <ele>420.56962481561</ele>
        <time>2021-07-20T17:53:12.449Z</time>
      </trkpt>
      <trkpt lat="45.97569" lon="4.55458">
        <ele>421.51467579604</ele>
        <time>2021-07-20T17:53:17.356Z</time>
      </trkpt>
      <trkpt lat="45.97596" lon="4.55436">
        <ele>422.38559008226</ele>
        <time>2021-07-20T17:53:22.273Z</time>
      </trkpt>
      <trkpt lat="45.9763" lon="4.55407">
        <ele>423.43284563435</ele>
        <time>2021-07-20T17:53:27.203Z</time>
      </trkpt>
      <trkpt lat="45.97638" lon="4.554">
        <ele>424.29528332119</ele>
        <time>2021-07-20T17:53:32.136Z</time>
      </trkpt>
      <trkpt lat="45.97658" lon="4.55388">
        <ele>425.16014361794</ele>
        <time>2021-07-20T17:53:37.077Z</time>
      </trkpt>
      <trkpt lat="45.97685" lon="4.55378">
        <ele>426.01010341841</ele>
        <time>2021-07-20T17:53:42.027Z</time>
      </trkpt>
      <trkpt lat="45.97721" lon="4.55371">
        <ele>426.79955295441</ele>
        <time>2021-07-20T17:53:46.989Z</time>
      </trkpt>
      <trkpt lat="45.97732" lon="4.55373">
        <ele>427.71327803999</ele>
        <time>2021-07-20T17:53:51.955Z</time>
      </trkpt>
      <trkpt lat="45.97752" lon="4.5538">
        <ele>428.75491788089</ele>
        <time>2021-07-20T17:53:56.928Z</time>
      </trkpt>
      <trkpt lat="45.97764" lon="4.55389">
        <ele>429.88275494156</ele>
        <time>2021-07-20T17:54:01.905Z</time>
      </trkpt>
      <trkpt lat="45.97818" lon="4.55441">
        <ele>431.5425448374</ele>
        <time>2021-07-20T17:54:06.904Z</time>
      </trkpt>
      <trkpt lat="45.97827" lon="4.55447">
        <ele>432.79196081124</ele>
        <time>2021-07-20T17:54:11.906Z</time>
      </trkpt>
      <trkpt lat="45.9784" lon="4.55456">
        <ele>434.06341973257</ele>
        <time>2021-07-20T17:54:16.913Z</time>
      </trkpt>
      <trkpt lat="45.97857" lon="4.55463">
        <ele>435.25796207725</ele>
        <time>2021-07-20T17:54:21.926Z</time>
      </trkpt>
      <trkpt lat="45.97873" lon="4.55467">
        <ele>436.37465416311</ele>
        <time>2021-07-20T17:54:26.944Z</time>
      </trkpt>
      <trkpt lat="45.97894" lon="4.55466">
        <ele>437.46772450413</ele>
        <time>2021-07-20T17:54:31.969Z</time>
      </trkpt>
      <trkpt lat="45.97911" lon="4.55463">
        <ele>438.41753886845</ele>
        <time>2021-07-20T17:54:37.000Z</time>
      </trkpt>
      <trkpt lat="45.97928" lon="4.55458">
        <ele>439.32510513357</ele>
        <time>2021-07-20T17:54:42.037Z</time>
      </trkpt>
      <trkpt lat="45.97958" lon="4.55448">
        <ele>440.31597149473</ele>
        <time>2021-07-20T17:54:47.084Z</time>
      </trkpt>
      <trkpt lat="45.97967" lon="4.55443">
        <ele>441.28657729809</ele>
        <time>2021-07-20T17:54:52.134Z</time>
      </trkpt>
      <trkpt lat="45.97985" lon="4.55425">
        <ele>442.31699642976</ele>
        <time>2021-07-20T17:54:57.192Z</time>
      </trkpt>
      <trkpt lat="45.97993" lon="4.55417">
        <ele>443.4760752887</ele>
        <time>2021-07-20T17:55:02.253Z</time>
      </trkpt>
      <trkpt lat="45.9801" lon="4.5541">
        <ele>444.84090025223</ele>
        <time>2021-07-20T17:55:07.320Z</time>
      </trkpt>
      <trkpt lat="45.98027" lon="4.55405">
        <ele>446.21343889111</ele>
        <time>2021-07-20T17:55:12.392Z</time>
      </trkpt>
      <trkpt lat="45.98064" lon="4.55407">
        <ele>447.8316778822</ele>
        <time>2021-07-20T17:55:17.477Z</time>
      </trkpt>
      <trkpt lat="45.98088" lon="4.55407">
        <ele>449.64333029585</ele>
        <time>2021-07-20T17:55:22.570Z</time>
      </trkpt>
      <trkpt lat="45.98122" lon="4.55394">
        <ele>451.50485130612</ele>
        <time>2021-07-20T17:55:27.675Z</time>
      </trkpt>
      <trkpt lat="45.98134" lon="4.55387">
        <ele>453.31802233612</ele>
        <time>2021-07-20T17:55:32.784Z</time>
      </trkpt>
      <trkpt lat="45.98147" lon="4.55374">
        <ele>455.15080082988</ele>
        <time>2021-07-20T17:55:37.898Z</time>
      </trkpt>
      <trkpt lat="45.98164" lon="4.5536">
        <ele>456.98169650178</ele>
        <time>2021-07-20T17:55:43.019Z</time>
      </trkpt>
      <trkpt lat="45.98207" lon="4.55312">
        <ele>459.3777872645</ele>
        <time>2021-07-20T17:55:48.158Z</time>
      </trkpt>
      <trkpt lat="45.98238" lon="4.55282">
        <ele>461.14503847708</ele>
        <time>2021-07-20T17:55:53.309Z</time>
      </trkpt>
      <trkpt lat="45.98257" lon="4.55266">
        <ele>462.62875161071</ele>
        <time>2021-07-20T17:55:58.468Z</time>
      </trkpt>
      <trkpt lat="45.98279" lon="4.55243">
        <ele>463.94360734957</ele>
        <time>2021-07-20T17:56:03.636Z</time>
      </trkpt>
      <trkpt lat="45.98281" lon="4.55224">
        <ele>465.18482332273</ele>
        <time>2021-07-20T17:56:08.808Z</time>
      </trkpt>
      <trkpt lat="45.9828" lon="4.55212">
        <ele>466.46350940942</ele>
        <time>2021-07-20T17:56:13.983Z</time>
      </trkpt>
      <trkpt lat="45.9828" lon="4.5521">
        <ele>467.48563785627</ele>
        <time>2021-07-20T17:56:19.158Z</time>
      </trkpt>
      <trkpt lat="45.98318" lon="4.55183">
        <ele>468.38056503917</ele>
        <time>2021-07-20T17:56:24.348Z</time>
      </trkpt>
      <trkpt lat="45.98328" lon="4.55175">
        <ele>469.2692727233</ele>
        <time>2021-07-20T17:56:29.541Z</time>
      </trkpt>
      <trkpt lat="45.98337" lon="4.55166">
        <ele>470.004517474</ele>
        <time>2021-07-20T17:56:34.738Z</time>
      </trkpt>
      <trkpt lat="45.9837" lon="4.55148">
        <ele>470.77533543756</ele>
        <time>2021-07-20T17:56:39.947Z</time>
      </trkpt>
      <trkpt lat="45.98388" lon="4.5514">
        <ele>471.64176222435</ele>
        <time>2021-07-20T17:56:45.162Z</time>
      </trkpt>
      <trkpt lat="45.98405" lon="4.55134">
        <ele>472.59633766649</ele>
        <time>2021-07-20T17:56:50.383Z</time>
      </trkpt>
      <trkpt lat="45.98423" lon="4.55132">
        <ele>473.59376273293</ele>
        <time>2021-07-20T17:56:55.610Z</time>
      </trkpt>
      <trkpt lat="45.98454" lon="4.55136">
        <ele>474.78238391757</ele>
        <time>2021-07-20T17:57:00.847Z</time>
      </trkpt>
      <trkpt lat="45.98476" lon="4.55141">
        <ele>476.03132585228</ele>
        <time>2021-07-20T17:57:06.092Z</time>
      </trkpt>
      <trkpt lat="45.98494" lon="4.55144">
        <ele>477.32936756244</ele>
        <time>2021-07-20T17:57:11.343Z</time>
      </trkpt>
      <trkpt lat="45.985" lon="4.55146">
        <ele>478.59549405758</ele>
        <time>2021-07-20T17:57:16.596Z</time>
      </trkpt>
      <trkpt lat="45.9851" lon="4.55152">
        <ele>479.93498581158</ele>
        <time>2021-07-20T17:57:21.853Z</time>
      </trkpt>
      <trkpt lat="45.98518" lon="4.55165">
        <ele>481.27964261825</ele>
        <time>2021-07-20T17:57:27.114Z</time>
      </trkpt>
      <trkpt lat="45.98527" lon="4.55174">
        <ele>482.68827564747</ele>
        <time>2021-07-20T17:57:32.378Z</time>
      </trkpt>
      <trkpt lat="45.98546" lon="4.55182">
        <ele>484.17291884438</ele>
        <time>2021-07-20T17:57:37.649Z</time>
      </trkpt>
      <trkpt lat="45.98565" lon="4.55195">
        <ele>485.6378938192</ele>
        <time>2021-07-20T17:57:42.927Z</time>
      </trkpt>
      <trkpt lat="45.98593" lon="4.5521">
        <ele>487.32026503494</ele>
        <time>2021-07-20T17:57:48.215Z</time>
      </trkpt>
      <trkpt lat="45.98608" lon="4.55214">
        <ele>489.02893579462</ele>
        <time>2021-07-20T17:57:53.508Z</time>
      </trkpt>
      <trkpt lat="45.98626" lon="4.55212">
        <ele>490.8330876165</ele>
        <time>2021-07-20T17:57:58.807Z</time>
      </trkpt>
      <trkpt lat="45.98637" lon="4.55207">
        <ele>492.58767484675</ele>
        <time>2021-07-20T17:58:04.110Z</time>
      </trkpt>
      <trkpt lat="45.98674" lon="4.55182">
        <ele>494.45701128529</ele>
        <time>2021-07-20T17:58:09.426Z</time>
      </trkpt>
      <trkpt lat="45.98678" lon="4.55199">
        <ele>495.89244133246</ele>
        <time>2021-07-20T17:58:14.747Z</time>
      </trkpt>
      <trkpt lat="45.98676" lon="4.55213">
        <ele>497.29960710546</ele>
        <time>2021-07-20T17:58:20.071Z</time>
      </trkpt>
      <trkpt lat="45.98656" lon="4.55242">
        <ele>498.599748183</ele>
        <time>2021-07-20T17:58:25.404Z</time>
      </trkpt>
      <trkpt lat="45.98649" lon="4.55252">
        <ele>499.76520745448</ele>
        <time>2021-07-20T17:58:30.741Z</time>
      </trkpt>
      <trkpt lat="45.98636" lon="4.5527">
        <ele>500.93136555255</ele>
        <time>2021-07-20T17:58:36.084Z</time>
      </trkpt>
      <trkpt lat="45.98624" lon="4.55289">
        <ele>502.04032754994</ele>
        <time>2021-07-20T17:58:41.433Z</time>
      </trkpt>
      <trkpt lat="45.98604" lon="4.55328">
        <ele>503.50653428187</ele>
        <time>2021-07-20T17:58:46.793Z</time>
      </trkpt>
      <trkpt lat="45.98602" lon="4.55329">
        <ele>504.13438888371</ele>
        <time>2021-07-20T17:58:52.154Z</time>
      </trkpt>
      <trkpt lat="45.986" lon="4.55328">
        <ele>504.50861430996</ele>
        <time>2021-07-20T17:58:57.515Z</time>
      </trkpt>
      <trkpt lat="45.98594" lon="4.55323">
        <ele>504.66928796674</ele>
        <time>2021-07-20T17:59:02.879Z</time>
      </trkpt>
      <trkpt lat="45.98566" lon="4.55287">
        <ele>504.23105500068</ele>
        <time>2021-07-20T17:59:08.255Z</time>
      </trkpt>
      <trkpt lat="45.98559" lon="4.55282">
        <ele>504.27567517784</ele>
        <time>2021-07-20T17:59:13.634Z</time>
      </trkpt>
      <trkpt lat="45.98544" lon="4.55275">
        <ele>504.42295520261</ele>
        <time>2021-07-20T17:59:19.018Z</time>
      </trkpt>
      <trkpt lat="45.98532" lon="4.55276">
        <ele>504.82119110024</ele>
        <time>2021-07-20T17:59:24.406Z</time>
      </trkpt>
      <trkpt lat="45.98525" lon="4.55278">
        <ele>505.3997975811</ele>
        <time>2021-07-20T17:59:29.796Z</time>
      </trkpt>
      <trkpt lat="45.98509" lon="4.5529">
        <ele>506.36877076987</ele>
        <time>2021-07-20T17:59:35.192Z</time>
      </trkpt>
      <trkpt lat="45.98495" lon="4.55307">
        <ele>507.55362237887</ele>
        <time>2021-07-20T17:59:40.595Z</time>
      </trkpt>
      <trkpt lat="45.98488" lon="4.55322">
        <ele>508.86519761769</ele>
        <time>2021-07-20T17:59:46.002Z</time>
      </trkpt>
      <trkpt lat="45.98486" lon="4.55334">
        <ele>510.40503682977</ele>
        <time>2021-07-20T17:59:51.412Z</time>
      </trkpt>
      <trkpt lat="45.98487" lon="4.55346">
        <ele>512.14676567495</ele>
        <time>2021-07-20T17:59:56.824Z</time>
      </trkpt>
      <trkpt lat="45.98489" lon="4.55351">
        <ele>514.08859373812</ele>
        <time>2021-07-20T18:00:02.238Z</time>
      </trkpt>
      <trkpt lat="45.98496" lon="4.55367">
        <ele>516.3599106266</ele>
        <time>2021-07-20T18:00:07.656Z</time>
      </trkpt>
      <trkpt lat="45.98501" lon="4.55378">
        <ele>518.84616333619</ele>
        <time>2021-07-20T18:00:13.077Z</time>
      </trkpt>
      <trkpt lat="45.9851" lon="4.55394">
        <ele>521.55759871876</ele>
        <time>2021-07-20T18:00:18.503Z</time>
      </trkpt>
      <trkpt lat="45.98521" lon="4.55405">
        <ele>524.41491885614</ele>
        <time>2021-07-20T18:00:23.933Z</time>
      </trkpt>
      <trkpt lat="45.98532" lon="4.55413">
        <ele>527.35356669047</ele>
        <time>2021-07-20T18:00:29.368Z</time>
      </trkpt>
      <trkpt lat="45.98541" lon="4.55423">
        <ele>530.40344411935</ele>
        <time>2021-07-20T18:00:34.806Z</time>
      </trkpt>
      <trkpt lat="45.98546" lon="4.55434">
        <ele>533.51216000955</ele>
        <time>2021-07-20T18:00:40.247Z</time>
      </trkpt>
      <trkpt lat="45.98547" lon="4.55444">
        <ele>536.6829374586</ele>
        <time>2021-07-20T18:00:45.691Z</time>
      </trkpt>
      <trkpt lat="45.98546" lon="4.55456">
        <ele>539.93623159147</ele>
        <time>2021-07-20T18:00:51.138Z</time>
      </trkpt>
      <trkpt lat="45.9855" lon="4.55487">
        <ele>543.3757279615</ele>
        <time>2021-07-20T18:00:56.592Z</time>
      </trkpt>
      <trkpt lat="45.98556" lon="4.55515">
        <ele>546.85097993459</ele>
        <time>2021-07-20T18:01:02.053Z</time>
      </trkpt>
      <trkpt lat="45.98569" lon="4.5554">
        <ele>550.56904697097</ele>
        <time>2021-07-20T18:01:07.521Z</time>
      </trkpt>
      <trkpt lat="45.98576" lon="4.55563">
        <ele>554.43827953808</ele>
        <time>2021-07-20T18:01:12.995Z</time>
      </trkpt>
      <trkpt lat="45.98581" lon="4.55588">
        <ele>558.55983071421</ele>
        <time>2021-07-20T18:01:18.475Z</time>
      </trkpt>
      <trkpt lat="45.98585" lon="4.55613">
        <ele>562.71251136052</ele>
        <time>2021-07-20T18:01:23.961Z</time>
      </trkpt>
      <trkpt lat="45.98586" lon="4.55641">
        <ele>566.65853095529</ele>
        <time>2021-07-20T18:01:29.453Z</time>
      </trkpt>
      <trkpt lat="45.98593" lon="4.5569">
        <ele>570.87861987097</ele>
        <time>2021-07-20T18:01:34.957Z</time>
      </trkpt>
      <trkpt lat="45.9859" lon="4.55702">
        <ele>574.77231730579</ele>
        <time>2021-07-20T18:01:40.464Z</time>
      </trkpt>
      <trkpt lat="45.98584" lon="4.55714">
        <ele>578.5492111579</ele>
        <time>2021-07-20T18:01:45.974Z</time>
      </trkpt>
      <trkpt lat="45.98559" lon="4.5578">
        <ele>582.3655110478</ele>
        <time>2021-07-20T18:01:51.502Z</time>
      </trkpt>
      <trkpt lat="45.98543" lon="4.55826">
        <ele>585.83922230985</ele>
        <time>2021-07-20T18:01:57.042Z</time>
      </trkpt>
      <trkpt lat="45.98531" lon="4.55866">
        <ele>589.13843904147</ele>
        <time>2021-07-20T18:02:02.592Z</time>
      </trkpt>
      <trkpt lat="45.98524" lon="4.55893">
        <ele>592.14485963985</ele>
        <time>2021-07-20T18:02:08.149Z</time>
      </trkpt>
      <trkpt lat="45.98514" lon="4.55955">
        <ele>595.11598317392</ele>
        <time>2021-07-20T18:02:13.720Z</time>
      </trkpt>
      <trkpt lat="45.98511" lon="4.55971">
        <ele>597.24595045579</ele>
        <time>2021-07-20T18:02:19.295Z</time>
      </trkpt>
      <trkpt lat="45.98509" lon="4.55973">
        <ele>598.7160601042</ele>
        <time>2021-07-20T18:02:24.871Z</time>
      </trkpt>
      <trkpt lat="45.98502" lon="4.55969">
        <ele>599.6559378859</ele>
        <time>2021-07-20T18:02:30.450Z</time>
      </trkpt>
      <trkpt lat="45.98487" lon="4.55951">
        <ele>600.03540740733</ele>
        <time>2021-07-20T18:02:36.035Z</time>
      </trkpt>
      <trkpt lat="45.98473" lon="4.55936">
        <ele>600.1209391739</ele>
        <time>2021-07-20T18:02:41.626Z</time>
      </trkpt>
      <trkpt lat="45.98451" lon="4.55917">
        <ele>599.91033421705</ele>
        <time>2021-07-20T18:02:47.225Z</time>
      </trkpt>
      <trkpt lat="45.9844" lon="4.55911">
        <ele>599.52691373239</ele>
        <time>2021-07-20T18:02:52.828Z</time>
      </trkpt>
      <trkpt lat="45.98425" lon="4.55907">
        <ele>599.03440067612</ele>
        <time>2021-07-20T18:02:58.436Z</time>
      </trkpt>
      <trkpt lat="45.98416" lon="4.55908">
        <ele>598.60446422837</ele>
        <time>2021-07-20T18:03:04.048Z</time>
      </trkpt>
      <trkpt lat="45.98411" lon="4.55913">
        <ele>598.45616226309</ele>
        <time>2021-07-20T18:03:09.662Z</time>
      </trkpt>
      <trkpt lat="45.98402" lon="4.55926">
        <ele>598.51788689932</ele>
        <time>2021-07-20T18:03:15.280Z</time>
      </trkpt>
      <trkpt lat="45.98406" lon="4.55923">
        <ele>598.98657903908</ele>
        <time>2021-07-20T18:03:20.899Z</time>
      </trkpt>
      <trkpt lat="45.98419" lon="4.55923">
        <ele>599.91537180804</ele>
        <time>2021-07-20T18:03:26.523Z</time>
      </trkpt>
      <trkpt lat="45.98436" lon="4.55934">
        <ele>601.10592428539</ele>
        <time>2021-07-20T18:03:32.153Z</time>
      </trkpt>
      <trkpt lat="45.98449" lon="4.55949">
        <ele>602.26902890632</ele>
        <time>2021-07-20T18:03:37.788Z</time>
      </trkpt>
      <trkpt lat="45.98463" lon="4.55968">
        <ele>603.496705299</ele>
        <time>2021-07-20T18:03:43.430Z</time>
      </trkpt>
      <trkpt lat="45.9849" lon="4.56001">
        <ele>604.81191400553</ele>
        <time>2021-07-20T18:03:49.084Z</time>
      </trkpt>
      <trkpt lat="45.98504" lon="4.56014">
        <ele>605.89313825975</ele>
        <time>2021-07-20T18:03:54.743Z</time>
      </trkpt>
      <trkpt lat="45.98513" lon="4.56019">
        <ele>606.76643032199</ele>
        <time>2021-07-20T18:04:00.405Z</time>
      </trkpt>
      <trkpt lat="45.98526" lon="4.56022">
        <ele>607.47038582927</ele>
        <time>2021-07-20T18:04:06.072Z</time>
      </trkpt>
      <trkpt lat="45.9853" lon="4.5602">
        <ele>607.98278022619</ele>
        <time>2021-07-20T18:04:11.740Z</time>
      </trkpt>
      <trkpt lat="45.98537" lon="4.56005">
        <ele>608.33431725287</ele>
        <time>2021-07-20T18:04:17.412Z</time>
      </trkpt>
      <trkpt lat="45.98547" lon="4.55973">
        <ele>608.50908152531</ele>
        <time>2021-07-20T18:04:23.093Z</time>
      </trkpt>
      <trkpt lat="45.98548" lon="4.55969">
        <ele>608.84913468169</ele>
        <time>2021-07-20T18:04:28.775Z</time>
      </trkpt>
      <trkpt lat="45.98562" lon="4.55943">
        <ele>609.25208869684</ele>
        <time>2021-07-20T18:04:34.464Z</time>
      </trkpt>
      <trkpt lat="45.98577" lon="4.55926">
        <ele>609.85526044471</ele>
        <time>2021-07-20T18:04:40.160Z</time>
      </trkpt>
      <trkpt lat="45.98592" lon="4.55912">
        <ele>610.57042110008</ele>
        <time>2021-07-20T18:04:45.862Z</time>
      </trkpt>
      <trkpt lat="45.98606" lon="4.55902">
        <ele>611.4037770573</ele>
        <time>2021-07-20T18:04:51.569Z</time>
      </trkpt>
      <trkpt lat="45.98611" lon="4.55898">
        <ele>612.39305200127</ele>
        <time>2021-07-20T18:04:57.278Z</time>
      </trkpt>
      <trkpt lat="45.98626" lon="4.55894">
        <ele>613.70954711799</ele>
        <time>2021-07-20T18:05:02.992Z</time>
      </trkpt>
      <trkpt lat="45.98638" lon="4.55891">
        <ele>615.03943218895</ele>
        <time>2021-07-20T18:05:08.710Z</time>
      </trkpt>
      <trkpt lat="45.98643" lon="4.55892">
        <ele>616.5837482408</ele>
        <time>2021-07-20T18:05:14.430Z</time>
      </trkpt>
      <trkpt lat="45.98661" lon="4.55897">
        <ele>618.39904795366</ele>
        <time>2021-07-20T18:05:20.156Z</time>
      </trkpt>
      <trkpt lat="45.98679" lon="4.55901">
        <ele>620.3571193041</ele>
        <time>2021-07-20T18:05:25.888Z</time>
      </trkpt>
      <trkpt lat="45.9869" lon="4.55909">
        <ele>622.50857695597</ele>
        <time>2021-07-20T18:05:31.624Z</time>
      </trkpt>
      <trkpt lat="45.98703" lon="4.55924">
        <ele>624.84738337137</ele>
        <time>2021-07-20T18:05:37.365Z</time>
      </trkpt>
      <trkpt lat="45.98736" lon="4.55962">
        <ele>627.31926570707</ele>
        <time>2021-07-20T18:05:43.120Z</time>
      </trkpt>
      <trkpt lat="45.9875" lon="4.55979">
        <ele>629.37457702949</ele>
        <time>2021-07-20T18:05:48.882Z</time>
      </trkpt>
      <trkpt lat="45.98766" lon="4.56006">
        <ele>631.4799663947</ele>
        <time>2021-07-20T18:05:54.652Z</time>
      </trkpt>
      <trkpt lat="45.98801" lon="4.56048">
        <ele>633.66560095769</ele>
        <time>2021-07-20T18:06:00.437Z</time>
      </trkpt>
      <trkpt lat="45.9882" lon="4.56074">
        <ele>635.68501399979</ele>
        <time>2021-07-20T18:06:06.231Z</time>
      </trkpt>
      <trkpt lat="45.98828" lon="4.56087">
        <ele>637.49121019805</ele>
        <time>2021-07-20T18:06:12.029Z</time>
      </trkpt>
      <trkpt lat="45.98842" lon="4.56103">
        <ele>639.15409150541</ele>
        <time>2021-07-20T18:06:17.833Z</time>
      </trkpt>
      <trkpt lat="45.98855" lon="4.56119">
        <ele>640.7209897655</ele>
        <time>2021-07-20T18:06:23.643Z</time>
      </trkpt>
      <trkpt lat="45.98868" lon="4.56132">
        <ele>642.09823421991</ele>
        <time>2021-07-20T18:06:29.458Z</time>
      </trkpt>
      <trkpt lat="45.98884" lon="4.5615">
        <ele>643.3699631614</ele>
        <time>2021-07-20T18:06:35.280Z</time>
      </trkpt>
      <trkpt lat="45.98887" lon="4.56152">
        <ele>644.26622607618</ele>
        <time>2021-07-20T18:06:41.103Z</time>
      </trkpt>
      <trkpt lat="45.98894" lon="4.56154">
        <ele>645.04665943267</ele>
        <time>2021-07-20T18:06:46.928Z</time>
      </trkpt>
      <trkpt lat="45.98902" lon="4.56152">
        <ele>645.7252179179</ele>
        <time>2021-07-20T18:06:52.756Z</time>
      </trkpt>
      <trkpt lat="45.9891" lon="4.56146">
        <ele>646.4298683032</ele>
        <time>2021-07-20T18:06:58.587Z</time>
      </trkpt>
      <trkpt lat="45.9892" lon="4.56131">
        <ele>647.27548016144</ele>
        <time>2021-07-20T18:07:04.423Z</time>
      </trkpt>
      <trkpt lat="45.98929" lon="4.56121">
        <ele>648.44190438375</ele>
        <time>2021-07-20T18:07:10.262Z</time>
      </trkpt>
      <trkpt lat="45.98936" lon="4.56117">
        <ele>649.86699569701</ele>
        <time>2021-07-20T18:07:16.104Z</time>
      </trkpt>
      <trkpt lat="45.98947" lon="4.56118">
        <ele>651.60832548766</ele>
        <time>2021-07-20T18:07:21.950Z</time>
      </trkpt>
      <trkpt lat="45.98965" lon="4.56117">
        <ele>653.6177904185</ele>
        <time>2021-07-20T18:07:27.802Z</time>
      </trkpt>
      <trkpt lat="45.99008" lon="4.56108">
        <ele>655.81715902876</ele>
        <time>2021-07-20T18:07:33.668Z</time>
      </trkpt>
      <trkpt lat="45.99029" lon="4.56101">
        <ele>657.77841691497</ele>
        <time>2021-07-20T18:07:39.541Z</time>
      </trkpt>
      <trkpt lat="45.99039" lon="4.56104">
        <ele>659.75901927471</ele>
        <time>2021-07-20T18:07:45.418Z</time>
      </trkpt>
      <trkpt lat="45.99048" lon="4.561">
        <ele>661.65214598168</ele>
        <time>2021-07-20T18:07:51.298Z</time>
      </trkpt>
      <trkpt lat="45.99058" lon="4.56087">
        <ele>667.92864742947</ele>
        <time>2021-07-20T18:07:57.182Z</time>
      </trkpt>
      <trkpt lat="45.99049" lon="4.5611">
        <ele>665.9028121737</ele>
        <time>2021-07-20T18:08:03.072Z</time>
      </trkpt>
      <trkpt lat="45.99047" lon="4.56114">
        <ele>668.37706124113</ele>
        <time>2021-07-20T18:08:08.963Z</time>
      </trkpt>
      <trkpt lat="45.99027" lon="4.56158">
        <ele>671.47612892309</ele>
        <time>2021-07-20T18:08:14.867Z</time>
      </trkpt>
      <trkpt lat="45.9899" lon="4.5623">
        <ele>674.78254878178</ele>
        <time>2021-07-20T18:08:20.792Z</time>
      </trkpt>
      <trkpt lat="45.98963" lon="4.56283">
        <ele>678.17297546958</ele>
        <time>2021-07-20T18:08:26.732Z</time>
      </trkpt>
      <trkpt lat="45.98944" lon="4.56314">
        <ele>681.81070824212</ele>
        <time>2021-07-20T18:08:32.681Z</time>
      </trkpt>
      <trkpt lat="45.98928" lon="4.56337">
        <ele>685.663330513</ele>
        <time>2021-07-20T18:08:38.638Z</time>
      </trkpt>
      <trkpt lat="45.98902" lon="4.56368">
        <ele>689.7096495351</ele>
        <time>2021-07-20T18:08:44.606Z</time>
      </trkpt>
      <trkpt lat="45.98882" lon="4.56386">
        <ele>690.42420136255</ele>
        <time>2021-07-20T18:08:50.582Z</time>
      </trkpt>
      <trkpt lat="45.9886" lon="4.56396">
        <ele>694.53291778166</ele>
        <time>2021-07-20T18:08:56.566Z</time>
      </trkpt>
      <trkpt lat="45.98837" lon="4.56402">
        <ele>706.45952041356</ele>
        <time>2021-07-20T18:09:02.558Z</time>
      </trkpt>
      <trkpt lat="45.98846" lon="4.56428">
        <ele>704.96789232908</ele>
        <time>2021-07-20T18:09:08.556Z</time>
      </trkpt>
      <trkpt lat="45.98852" lon="4.56444">
        <ele>708.32808374689</ele>
        <time>2021-07-20T18:09:14.559Z</time>
      </trkpt>
      <trkpt lat="45.98856" lon="4.56466">
        <ele>708.54361628604</ele>
        <time>2021-07-20T18:09:20.567Z</time>
      </trkpt>
      <trkpt lat="45.98865" lon="4.56504">
        <ele>709.42661620304</ele>
        <time>2021-07-20T18:09:26.584Z</time>
      </trkpt>
      <trkpt lat="45.98866" lon="4.56508">
        <ele>710.1887144473</ele>
        <time>2021-07-20T18:09:32.602Z</time>
      </trkpt>
    </trkseg>
  </trk>
</gpx>